Observation data for Fritch on 01/22/2019      Previous  Date  Next       Current Mesonet Observations  Soil Data  Daily Summary Page  Observations in Plain Language
KFR1 220600Z 20015KT 13/M05 A2954 RMK A01 T01251048  RH  030%=      5-min Rain = 0
KFR1 220601Z 20015KT 13/M05 A2953 RMK A01 T01251048  RH  030%=      5-min Rain = 0
KFR1 220602Z 20015KT 13/M05 A2954 RMK A01 T01251048  RH  030%=      5-min Rain = 0
KFR1 220603Z 20016KT 13/M05 A2953 RMK A01 T01261048  RH  029%=      5-min Rain = 0
KFR1 220604Z 20016KT 13/M05 A2953 RMK A01 T01271048  RH  029%=      5-min Rain = 0
KFR1 220605Z 20017KT 13/M05 A2953 RMK A01 T01291047  RH  029%=      5-min Rain = 0
KFR1 220606Z 21018KT 13/M05 A2953 RMK A01 T01311048  RH  029%=      5-min Rain = 0
KFR1 220607Z 21018KT 13/M05 A2953 RMK A01 T01341048  RH  028%=      5-min Rain = 0
KFR1 220608Z 22018KT 14/M05 A2953 RMK A01 T01371048  RH  027%=      5-min Rain = 0
KFR1 220609Z 21015KT 14/M05 A2953 RMK A01 T01391048  RH  027%=      5-min Rain = 0
KFR1 220610Z 21016KT 14/M05 A2953 RMK A01 T01391048  RH  027%=      5-min Rain = 0
KFR1 220611Z 20013KT 14/M05 A2954 RMK A01 T01391048  RH  027%=      5-min Rain = 0
KFR1 220612Z 20013KT 14/M05 A2954 RMK A01 T01351049  RH  028%=      5-min Rain = 0
KFR1 220613Z 21013KT 13/M05 A2954 RMK A01 T01321049  RH  028%=      5-min Rain = 0
KFR1 220614Z 21013KT 13/M05 A2954 RMK A01 T01311049  RH  028%=      5-min Rain = 0
KFR1 220615Z 21015KT 13/M05 A2954 RMK A01 T01311049  RH  028%=      5-min Rain = 0
KFR1 220616Z 22014KT 13/M05 A2954 RMK A01 T01311048  RH  028%=      5-min Rain = 0
KFR1 220617Z 22014KT 13/M05 A2954 RMK A01 T01321048  RH  028%=      5-min Rain = 0
KFR1 220618Z 22013KT 13/M05 A2954 RMK A01 T01321048  RH  028%=      5-min Rain = 0
KFR1 220619Z 22013KT 13/M05 A2955 RMK A01 T01321048  RH  028%=      5-min Rain = 0
KFR1 220620Z 23011KT 13/M05 A2955 RMK A01 T01321048  RH  028%=      5-min Rain = 0
KFR1 220621Z 24012KT 13/M05 A2956 RMK A01 T01301049  RH  028%=      5-min Rain = 0
KFR1 220622Z 26010KT 13/M05 A2957 RMK A01 T01301049  RH  029%=      5-min Rain = 0
KFR1 220623Z 29011KT 13/M05 A2958 RMK A01 T01301047  RH  029%=      5-min Rain = 0
KFR1 220624Z 27014KT 13/M04 A2958 RMK A01 T01271039  RH  031%=      5-min Rain = 0
KFR1 220625Z 27013KT 12/M04 A2958 RMK A01 T01231037  RH  032%=      5-min Rain = 0
KFR1 220626Z 25012KT 12/M04 A2958 RMK A01 T01231039  RH  032%=      5-min Rain = 0
KFR1 220627Z 23012KT 13/M04 A2957 RMK A01 T01251041  RH  031%=      5-min Rain = 0
KFR1 220628Z 23011KT 13/M04 A2957 RMK A01 T01261042  RH  031%=      5-min Rain = 0
KFR1 220629Z 23011KT 13/M04 A2957 RMK A01 T01271043  RH  030%=      5-min Rain = 0
KFR1 220630Z 24011KT 13/M04 A2957 RMK A01 T01291044  RH  030%=      5-min Rain = 0
KFR1 220631Z 24009KT 13/M04 A2958 RMK A01 T01331043  RH  029%=      5-min Rain = 0
KFR1 220632Z 26008KT 14/M04 A2958 RMK A01 T01351044  RH  029%=      5-min Rain = 0
KFR1 220633Z 27005KT 14/M04 A2958 RMK A01 T01351044  RH  029%=      5-min Rain = 0
KFR1 220634Z 25006KT 13/M04 A2958 RMK A01 T01341043  RH  029%=      5-min Rain = 0
KFR1 220635Z 23007KT 13/M04 A2958 RMK A01 T01331043  RH  029%=      5-min Rain = 0
KFR1 220636Z 21008KT 13/M04 A2957 RMK A01 T01311043  RH  030%=      5-min Rain = 0
KFR1 220637Z 21009KT 13/M04 A2957 RMK A01 T01311043  RH  030%=      5-min Rain = 0
KFR1 220638Z 22010KT 13/M04 A2957 RMK A01 T01311043  RH  030%=      5-min Rain = 0
KFR1 220639Z 21011KT 13/M04 A2957 RMK A01 T01331043  RH  029%=      5-min Rain = 0
KFR1 220640Z 22010KT 13/M04 A2957 RMK A01 T01341043  RH  029%=      5-min Rain = 0
KFR1 220641Z 22014KT 13/M04 A2957 RMK A01 T01341044  RH  029%=      5-min Rain = 0
KFR1 220642Z 22012KT 14/M04 A2957 RMK A01 T01391044  RH  028%=      5-min Rain = 0
KFR1 220643Z 22013KT 14/M04 A2957 RMK A01 T01411044  RH  027%=      5-min Rain = 0
KFR1 220644Z 22012KT 14/M05 A2957 RMK A01 T01411046  RH  027%=      5-min Rain = 0
KFR1 220645Z 22013KT 14/M05 A2957 RMK A01 T01421046  RH  027%=      5-min Rain = 0
KFR1 220646Z 22011KT 14/M05 A2957 RMK A01 T01411046  RH  027%=      5-min Rain = 0
KFR1 220647Z 22012KT 14/M05 A2957 RMK A01 T01401047  RH  027%=      5-min Rain = 0
KFR1 220648Z 22011KT 14/M05 A2957 RMK A01 T01391047  RH  027%=      5-min Rain = 0
KFR1 220649Z 23010KT 14/M05 A2957 RMK A01 T01361047  RH  028%=      5-min Rain = 0
KFR1 220650Z 23010KT 13/M05 A2957 RMK A01 T01341048  RH  028%=      5-min Rain = 0
KFR1 220651Z 23011KT 13/M05 A2957 RMK A01 T01341047  RH  028%=      5-min Rain = 0
KFR1 220652Z 23011KT 13/M05 A2957 RMK A01 T01341048  RH  028%=      5-min Rain = 0
KFR1 220653Z 23011KT 14/M05 A2957 RMK A01 T01361048  RH  028%=      5-min Rain = 0
KFR1 220654Z 23011KT 14/M05 A2957 RMK A01 T01381048  RH  027%=      5-min Rain = 0
KFR1 220655Z 22012KT 14/M05 A2957 RMK A01 T01381048  RH  027%=      5-min Rain = 0
KFR1 220656Z 22013KT 14/M05 A2957 RMK A01 T01381048  RH  027%=      5-min Rain = 0
KFR1 220657Z 22012KT 14/M05 A2957 RMK A01 T01381048  RH  027%=      5-min Rain = 0
KFR1 220658Z 23013KT 14/M05 A2957 RMK A01 T01381048  RH  027%=      5-min Rain = 0
KFR1 220659Z 23013KT 14/M05 A2957 RMK A01 T01381048  RH  027%=      5-min Rain = 0
KFR1 220700Z 23012KT 14/M05 A2957 RMK A01 T01401048  RH  027%=      5-min Rain = 0
KFR1 220701Z 23014KT 14/M05 A2957 RMK A01 T01411049  RH  026%=      5-min Rain = 0
KFR1 220702Z 23013KT 14/M05 A2958 RMK A01 T01431049  RH  026%=      5-min Rain = 0
KFR1 220703Z 23014KT 14/M05 A2958 RMK A01 T01431050  RH  026%=      5-min Rain = 0
KFR1 220704Z 24013KT 14/M05 A2958 RMK A01 T01441050  RH  026%=      5-min Rain = 0
KFR1 220705Z 24013KT 14/M05 A2958 RMK A01 T01441050  RH  026%=      5-min Rain = 0
KFR1 220706Z 24013KT 15/M05 A2958 RMK A01 T01451050  RH  026%=      5-min Rain = 0
KFR1 220707Z 24012KT 15/M05 A2958 RMK A01 T01471050  RH  025%=      5-min Rain = 0
KFR1 220708Z 24013KT 15/M05 A2958 RMK A01 T01471051  RH  025%=      5-min Rain = 0
KFR1 220709Z 24011KT 15/M05 A2958 RMK A01 T01471051  RH  025%=      5-min Rain = 0
KFR1 220710Z 25012KT 15/M05 A2959 RMK A01 T01461051  RH  025%=      5-min Rain = 0
KFR1 220711Z 25013KT 15/M05 A2958 RMK A01 T01451050  RH  026%=      5-min Rain = 0
KFR1 220712Z 25012KT 14/M05 A2958 RMK A01 T01441050  RH  026%=      5-min Rain = 0
KFR1 220713Z 25014KT 15/M05 A2959 RMK A01 T01461051  RH  025%=      5-min Rain = 0
KFR1 220714Z 27010KT 15/M05 A2959 RMK A01 T01491050  RH  025%=      5-min Rain = 0
KFR1 220715Z 26011KT 15/M04 A2959 RMK A01 T01471040  RH  027%=      5-min Rain = 0
KFR1 220716Z 25012KT 14/M04 A2959 RMK A01 T01411039  RH  028%=      5-min Rain = 0
KFR1 220717Z 26013KT 14/M05 A2959 RMK A01 T01401045  RH  028%=      5-min Rain = 0
KFR1 220718Z 25010G15KT 14/M05 A2959 RMK A01 T01411045  RH  027%=      5-min Rain = 0
KFR1 220719Z 25010KT 14/M04 A2959 RMK A01 T01421044  RH  027%=      5-min Rain = 0
KFR1 220720Z 26012KT 14/M04 A2959 RMK A01 T01411043  RH  028%=      5-min Rain = 0
KFR1 220721Z 25011KT 14/M04 A2959 RMK A01 T01411042  RH  028%=      5-min Rain = 0
KFR1 220722Z 26010KT 14/M04 A2959 RMK A01 T01401042  RH  028%=      5-min Rain = 0
KFR1 220723Z 25010KT 14/M04 A2959 RMK A01 T01381043  RH  028%=      5-min Rain = 0
KFR1 220724Z 25012KT 14/M05 A2959 RMK A01 T01381046  RH  028%=      5-min Rain = 0
KFR1 220725Z 25012KT 14/M05 A2959 RMK A01 T01401048  RH  027%=      5-min Rain = 0
KFR1 220726Z 25012KT 14/M05 A2959 RMK A01 T01431048  RH  026%=      5-min Rain = 0
KFR1 220727Z 25010KT 14/M05 A2959 RMK A01 T01431048  RH  026%=      5-min Rain = 0
KFR1 220728Z 25012KT 14/M05 A2959 RMK A01 T01431050  RH  026%=      5-min Rain = 0
KFR1 220729Z 25012KT 14/M05 A2959 RMK A01 T01421051  RH  026%=      5-min Rain = 0
KFR1 220730Z 25012KT 14/M05 A2959 RMK A01 T01431051  RH  026%=      5-min Rain = 0
KFR1 220731Z 25011KT 14/M05 A2959 RMK A01 T01431052  RH  025%=      5-min Rain = 0
KFR1 220732Z 25013KT 14/M05 A2959 RMK A01 T01441052  RH  025%=      5-min Rain = 0
KFR1 220733Z 24011KT 14/M05 A2959 RMK A01 T01441052  RH  025%=      5-min Rain = 0
KFR1 220734Z 24011KT 14/M05 A2959 RMK A01 T01431052  RH  026%=      5-min Rain = 0
KFR1 220735Z 24011KT 14/M05 A296 RMK A01 T01421051  RH  026%=      5-min Rain = 0
KFR1 220736Z 25012KT 14/M05 A296 RMK A01 T01411052  RH  026%=      5-min Rain = 0
KFR1 220737Z 24013KT 14/M05 A296 RMK A01 T01401052  RH  026%=      5-min Rain = 0
KFR1 220738Z 25012G17KT 14/M05 A296 RMK A01 T01401053  RH  026%=      5-min Rain = 0
KFR1 220739Z 25012G17KT 14/M05 A296 RMK A01 T01391053  RH  026%=      5-min Rain = 0
KFR1 220740Z 25011KT 14/M05 A296 RMK A01 T01391053  RH  026%=      5-min Rain = 0
KFR1 220741Z 25011KT 14/M05 A296 RMK A01 T01381054  RH  026%=      5-min Rain = 0
KFR1 220742Z 25011KT 14/M05 A296 RMK A01 T01371054  RH  026%=      5-min Rain = 0
KFR1 220743Z 25009KT 14/M05 A296 RMK A01 T01361054  RH  026%=      5-min Rain = 0
KFR1 220744Z 25010KT 13/M05 A296 RMK A01 T01341054  RH  027%=      5-min Rain = 0
KFR1 220745Z 25009KT 13/M05 A296 RMK A01 T01331054  RH  027%=      5-min Rain = 0
KFR1 220746Z 25009KT 13/M05 A296 RMK A01 T01321053  RH  027%=      5-min Rain = 0
KFR1 220747Z 24011KT 13/M05 A296 RMK A01 T01301053  RH  027%=      5-min Rain = 0
KFR1 220748Z 25008KT 13/M05 A296 RMK A01 T01311052  RH  028%=      5-min Rain = 0
KFR1 220749Z 25007KT 13/M05 A296 RMK A01 T01311052  RH  028%=      5-min Rain = 0
KFR1 220750Z 26007KT 13/M05 A296 RMK A01 T01301052  RH  028%=      5-min Rain = 0
KFR1 220751Z 25008KT 13/M05 A296 RMK A01 T01281052  RH  028%=      5-min Rain = 0
KFR1 220752Z 25008KT 13/M05 A296 RMK A01 T01271051  RH  028%=      5-min Rain = 0
KFR1 220753Z 25006KT 13/M05 A296 RMK A01 T01271050  RH  029%=      5-min Rain = 0
KFR1 220754Z 25006KT 13/M05 A296 RMK A01 T01271050  RH  029%=      5-min Rain = 0
KFR1 220755Z 26008KT 13/M05 A296 RMK A01 T01251050  RH  029%=      5-min Rain = 0
KFR1 220756Z 26007G12KT 13/M05 A296 RMK A01 T01251049  RH  029%=      5-min Rain = 0
KFR1 220757Z 27008KT 13/M05 A296 RMK A01 T01251048  RH  030%=      5-min Rain = 0
KFR1 220758Z 27006KT 12/M05 A296 RMK A01 T01241048  RH  030%=      5-min Rain = 0
KFR1 220759Z 27006KT 12/M05 A296 RMK A01 T01231047  RH  030%=      5-min Rain = 0
KFR1 220800Z 27007KT 12/M05 A296 RMK A01 T01221047  RH  030%=      5-min Rain = 0
KFR1 220801Z 27007KT 12/M05 A2961 RMK A01 T01211045  RH  031%=      5-min Rain = 0
KFR1 220802Z 27008KT 12/M04 A2961 RMK A01 T01201044  RH  031%=      5-min Rain = 0
KFR1 220803Z 27008KT 12/M04 A2961 RMK A01 T01201044  RH  032%=      5-min Rain = 0
KFR1 220804Z 27008KT 12/M04 A2961 RMK A01 T01191043  RH  032%=      5-min Rain = 0
KFR1 220805Z 27007KT 12/M04 A2961 RMK A01 T01181042  RH  032%=      5-min Rain = 0
KFR1 220806Z 27007KT 12/M04 A2961 RMK A01 T01161042  RH  033%=      5-min Rain = 0
KFR1 220807Z 27006KT 12/M04 A2961 RMK A01 T01151039  RH  034%=      5-min Rain = 0
KFR1 220808Z 26006KT 11/M04 A2961 RMK A01 T01131035  RH  035%=      5-min Rain = 0
KFR1 220809Z 26006KT 11/M03 A2961 RMK A01 T01101032  RH  037%=      5-min Rain = 0
KFR1 220810Z 26007KT 11/M03 A2961 RMK A01 T01071033  RH  037%=      5-min Rain = 0
KFR1 220811Z 27007KT 11/M04 A2961 RMK A01 T01071036  RH  036%=      5-min Rain = 0
KFR1 220812Z 28004KT 11/M04 A2961 RMK A01 T01071038  RH  036%=      5-min Rain = 0
KFR1 220813Z 28004KT 11/M04 A2961 RMK A01 T01071037  RH  036%=      5-min Rain = 0
KFR1 220814Z 26004KT 11/M04 A2961 RMK A01 T01071037  RH  036%=      5-min Rain = 0
KFR1 220815Z 25005KT 11/M04 A2962 RMK A01 T01061037  RH  036%=      5-min Rain = 0
KFR1 220816Z 25006KT 11/M04 A2962 RMK A01 T01051036  RH  037%=      5-min Rain = 0
KFR1 220817Z 25007KT 11/M04 A2962 RMK A01 T01051038  RH  036%=      5-min Rain = 0
KFR1 220818Z 25006KT 11/M04 A2962 RMK A01 T01051038  RH  037%=      5-min Rain = 0
KFR1 220819Z 24006KT 10/M04 A2962 RMK A01 T01041036  RH  037%=      5-min Rain = 0
KFR1 220820Z 24005KT 10/M04 A2962 RMK A01 T01041037  RH  037%=      5-min Rain = 0
KFR1 220821Z 25005KT 10/M04 A2962 RMK A01 T01041037  RH  037%=      5-min Rain = 0
KFR1 220822Z 26007KT 10/M04 A2962 RMK A01 T01031038  RH  037%=      5-min Rain = 0
KFR1 220823Z 26008KT 10/M04 A2962 RMK A01 T01041038  RH  037%=      5-min Rain = 0
KFR1 220824Z 26008KT 11/M04 A2962 RMK A01 T01061037  RH  036%=      5-min Rain = 0
KFR1 220825Z 25007KT 11/M04 A2962 RMK A01 T01081037  RH  036%=      5-min Rain = 0
KFR1 220826Z 25005KT 11/M04 A2962 RMK A01 T01071037  RH  036%=      5-min Rain = 0
KFR1 220827Z 27007KT 11/M04 A2963 RMK A01 T01071036  RH  036%=      5-min Rain = 0
KFR1 220828Z 27005KT 11/M04 A2962 RMK A01 T01051037  RH  036%=      5-min Rain = 0
KFR1 220829Z 28005KT 11/M04 A2962 RMK A01 T01051038  RH  036%=      5-min Rain = 0
KFR1 220830Z 27006KT 11/M04 A2962 RMK A01 T01051039  RH  036%=      5-min Rain = 0
KFR1 220831Z 27005KT 11/M04 A2962 RMK A01 T01051039  RH  036%=      5-min Rain = 0
KFR1 220832Z 28003KT 11/M04 A2962 RMK A01 T01051040  RH  036%=      5-min Rain = 0
KFR1 220833Z 27004KT 11/M04 A2962 RMK A01 T01051040  RH  036%=      5-min Rain = 0
KFR1 220834Z 26004KT 11/M04 A2962 RMK A01 T01051040  RH  036%=      5-min Rain = 0
KFR1 220835Z 26005KT 10/M04 A2962 RMK A01 T01041039  RH  036%=      5-min Rain = 0
KFR1 220836Z 25005KT 10/M04 A2962 RMK A01 T01041039  RH  036%=      5-min Rain = 0
KFR1 220837Z 24005KT 10/M04 A2962 RMK A01 T01031040  RH  036%=      5-min Rain = 0
KFR1 220838Z 25005KT 10/M04 A2962 RMK A01 T01031040  RH  036%=      5-min Rain = 0
KFR1 220839Z 25007KT 10/M04 A2962 RMK A01 T01021041  RH  036%=      5-min Rain = 0
KFR1 220840Z 26006KT 10/M04 A2962 RMK A01 T01021040  RH  036%=      5-min Rain = 0
KFR1 220841Z 25007KT 10/M04 A2962 RMK A01 T01031041  RH  036%=      5-min Rain = 0
KFR1 220842Z 26009KT 10/M04 A2962 RMK A01 T01041041  RH  036%=      5-min Rain = 0
KFR1 220843Z 26008KT 10/M04 A2962 RMK A01 T01041040  RH  036%=      5-min Rain = 0
KFR1 220844Z 27007KT 11/M04 A2962 RMK A01 T01051040  RH  036%=      5-min Rain = 0
KFR1 220845Z 25007KT 11/M04 A2962 RMK A01 T01051041  RH  036%=      5-min Rain = 0
KFR1 220846Z 26008KT 11/M04 A2962 RMK A01 T01051041  RH  036%=      5-min Rain = 0
KFR1 220847Z 27007KT 11/M04 A2962 RMK A01 T01051041  RH  036%=      5-min Rain = 0
KFR1 220848Z 27006KT 11/M04 A2962 RMK A01 T01061041  RH  035%=      5-min Rain = 0
KFR1 220849Z 27007KT 11/M04 A2962 RMK A01 T01051041  RH  035%=      5-min Rain = 0
KFR1 220850Z 28008KT 11/M04 A2962 RMK A01 T01051041  RH  035%=      5-min Rain = 0
KFR1 220851Z 26006KT 11/M04 A2962 RMK A01 T01051041  RH  036%=      5-min Rain = 0
KFR1 220852Z 27005KT 11/M04 A2962 RMK A01 T01051041  RH  036%=      5-min Rain = 0
KFR1 220853Z 27005KT 10/M04 A2962 RMK A01 T01041041  RH  036%=      5-min Rain = 0
KFR1 220854Z 28004KT 10/M04 A2962 RMK A01 T01031040  RH  036%=      5-min Rain = 0
KFR1 220855Z 26007KT 10/M04 A2962 RMK A01 T01021041  RH  036%=      5-min Rain = 0
KFR1 220856Z 27008KT 10/M04 A2962 RMK A01 T01011041  RH  036%=      5-min Rain = 0
KFR1 220857Z 27006KT 10/M04 A2962 RMK A01 T01021041  RH  036%=      5-min Rain = 0
KFR1 220858Z 27006KT 10/M04 A2962 RMK A01 T01021041  RH  036%=      5-min Rain = 0
KFR1 220859Z 28006KT 10/M04 A2962 RMK A01 T01021041  RH  036%=      5-min Rain = 0
KFR1 220900Z 27006KT 10/M04 A2962 RMK A01 T01011041  RH  036%=      5-min Rain = 0
KFR1 220901Z 27007KT 10/M04 A2962 RMK A01 T01011042  RH  036%=      5-min Rain = 0
KFR1 220902Z 26007KT 10/M04 A2962 RMK A01 T01001042  RH  037%=      5-min Rain = 0
KFR1 220903Z 27007KT 10/M04 A2962 RMK A01 T00991041  RH  037%=      5-min Rain = 0
KFR1 220904Z 26006KT 10/M04 A2962 RMK A01 T00991039  RH  038%=      5-min Rain = 0
KFR1 220905Z 26006KT 10/M04 A2962 RMK A01 T00981040  RH  038%=      5-min Rain = 0
KFR1 220906Z 26008KT 10/M04 A2963 RMK A01 T00961040  RH  038%=      5-min Rain = 0
KFR1 220907Z 26007KT 10/M04 A2962 RMK A01 T00961040  RH  038%=      5-min Rain = 0
KFR1 220908Z 26007KT 10/M04 A2962 RMK A01 T00961040  RH  038%=      5-min Rain = 0
KFR1 220909Z 27007KT 10/M04 A2962 RMK A01 T00951040  RH  038%=      5-min Rain = 0
KFR1 220910Z 26006KT 09/M04 A2962 RMK A01 T00941040  RH  039%=      5-min Rain = 0
KFR1 220911Z 25004KT 09/M04 A2962 RMK A01 T00941040  RH  039%=      5-min Rain = 0
KFR1 220912Z 26005KT 09/M04 A2962 RMK A01 T00921041  RH  039%=      5-min Rain = 0
KFR1 220913Z 25005KT 09/M04 A2962 RMK A01 T00911041  RH  039%=      5-min Rain = 0
KFR1 220914Z 24006KT 09/M04 A2962 RMK A01 T00901041  RH  039%=      5-min Rain = 0
KFR1 220915Z 26007KT 09/M04 A2963 RMK A01 T00891042  RH  039%=      5-min Rain = 0
KFR1 220916Z 26007KT 09/M04 A2963 RMK A01 T00891041  RH  040%=      5-min Rain = 0
KFR1 220917Z 26006KT 09/M04 A2963 RMK A01 T00901041  RH  039%=      5-min Rain = 0
KFR1 220918Z 27005KT 09/M04 A2963 RMK A01 T00901041  RH  039%=      5-min Rain = 0
KFR1 220919Z 26005KT 09/M04 A2963 RMK A01 T00901041  RH  039%=      5-min Rain = 0
KFR1 220920Z 26006KT 09/M04 A2963 RMK A01 T00891041  RH  039%=      5-min Rain = 0
KFR1 220921Z 26006KT 09/M04 A2963 RMK A01 T00891041  RH  040%=      5-min Rain = 0
KFR1 220922Z 26004KT 09/M04 A2963 RMK A01 T00891041  RH  040%=      5-min Rain = 0
KFR1 220923Z 26004KT 09/M04 A2963 RMK A01 T00881041  RH  040%=      5-min Rain = 0
KFR1 220924Z 26005KT 09/M04 A2963 RMK A01 T00871041  RH  040%=      5-min Rain = 0
KFR1 220925Z 24004KT 09/M04 A2963 RMK A01 T00861041  RH  040%=      5-min Rain = 0
KFR1 220926Z 26003KT 09/M04 A2963 RMK A01 T00851041  RH  040%=      5-min Rain = 0
KFR1 220927Z 26004KT 09/M04 A2963 RMK A01 T00851041  RH  041%=      5-min Rain = 0
KFR1 220928Z 24003KT 09/M04 A2963 RMK A01 T00851041  RH  041%=      5-min Rain = 0
KFR1 220929Z 24005KT 08/M04 A2963 RMK A01 T00841042  RH  041%=      5-min Rain = 0
KFR1 220930Z 24005KT 08/M04 A2963 RMK A01 T00821042  RH  041%=      5-min Rain = 0
KFR1 220931Z 25005KT 08/M04 A2963 RMK A01 T00811041  RH  042%=      5-min Rain = 0
KFR1 220932Z 25005KT 08/M04 A2963 RMK A01 T00801041  RH  042%=      5-min Rain = 0
KFR1 220933Z 25005KT 08/M04 A2963 RMK A01 T00801041  RH  042%=      5-min Rain = 0
KFR1 220934Z 26004KT 08/M04 A2963 RMK A01 T00801041  RH  042%=      5-min Rain = 0
KFR1 220935Z 25003KT 08/M04 A2964 RMK A01 T00791042  RH  042%=      5-min Rain = 0
KFR1 220936Z 25005KT 08/M04 A2964 RMK A01 T00781042  RH  042%=      5-min Rain = 0
KFR1 220937Z 24004KT 08/M04 A2964 RMK A01 T00771042  RH  043%=      5-min Rain = 0
KFR1 220938Z 24005KT 08/M04 A2964 RMK A01 T00771042  RH  043%=      5-min Rain = 0
KFR1 220939Z 25005KT 08/M04 A2964 RMK A01 T00771042  RH  043%=      5-min Rain = 0
KFR1 220940Z 26005KT 08/M04 A2964 RMK A01 T00771042  RH  043%=      5-min Rain = 0
KFR1 220941Z 25006G11KT 08/M04 A2964 RMK A01 T00761042  RH  043%=      5-min Rain = 0
KFR1 220942Z 25007KT 08/M04 A2964 RMK A01 T00761042  RH  043%=      5-min Rain = 0
KFR1 220943Z 25006KT 08/M04 A2964 RMK A01 T00781041  RH  043%=      5-min Rain = 0
KFR1 220944Z 25006KT 08/M04 A2964 RMK A01 T00771041  RH  043%=      5-min Rain = 0
KFR1 220945Z 25006KT 08/M04 A2964 RMK A01 T00771041  RH  043%=      5-min Rain = 0
KFR1 220946Z 25006KT 08/M04 A2964 RMK A01 T00761041  RH  043%=      5-min Rain = 0
KFR1 220947Z 25006KT 08/M04 A2964 RMK A01 T00761041  RH  043%=      5-min Rain = 0
KFR1 220948Z 25006KT 08/M04 A2964 RMK A01 T00751042  RH  043%=      5-min Rain = 0
KFR1 220949Z 25005KT 08/M04 A2964 RMK A01 T00751042  RH  043%=      5-min Rain = 0
KFR1 220950Z 25005KT 08/M04 A2964 RMK A01 T00751041  RH  043%=      5-min Rain = 0
KFR1 220951Z 25004KT 08/M04 A2964 RMK A01 T00751042  RH  043%=      5-min Rain = 0
KFR1 220952Z 26004KT 08/M04 A2964 RMK A01 T00751042  RH  043%=      5-min Rain = 0
KFR1 220953Z 25003KT 08/M04 A2964 RMK A01 T00751042  RH  043%=      5-min Rain = 0
KFR1 220954Z 24003KT 07/M04 A2964 RMK A01 T00741043  RH  043%=      5-min Rain = 0
KFR1 220955Z 24003KT 07/M04 A2964 RMK A01 T00731043  RH  043%=      5-min Rain = 0
KFR1 220956Z 25005KT 07/M04 A2964 RMK A01 T00721043  RH  044%=      5-min Rain = 0
KFR1 220957Z 25004KT 07/M04 A2964 RMK A01 T00721044  RH  044%=      5-min Rain = 0
KFR1 220958Z 24003KT 07/M05 A2964 RMK A01 T00711045  RH  044%=      5-min Rain = 0
KFR1 220959Z 26004KT 07/M05 A2964 RMK A01 T00711045  RH  044%=      5-min Rain = 0
KFR1 221000Z 23002KT 07/M05 A2964 RMK A01 T00701045  RH  044%=      5-min Rain = 0
KFR1 221001Z 25004KT 07/M05 A2964 RMK A01 T00701045  RH  044%=      5-min Rain = 0
KFR1 221002Z 24005KT 07/M05 A2964 RMK A01 T00701045  RH  044%=      5-min Rain = 0
KFR1 221003Z 25004KT 07/M05 A2964 RMK A01 T00701045  RH  044%=      5-min Rain = 0
KFR1 221004Z 27003KT 07/M05 A2964 RMK A01 T00701046  RH  043%=      5-min Rain = 0
KFR1 221005Z 27003KT 07/M05 A2964 RMK A01 T00711045  RH  043%=      5-min Rain = 0
KFR1 221006Z 27004KT 07/M05 A2964 RMK A01 T00711046  RH  043%=      5-min Rain = 0
KFR1 221007Z 25004KT 07/M05 A2964 RMK A01 T00711046  RH  043%=      5-min Rain = 0
KFR1 221008Z 23003KT 07/M05 A2965 RMK A01 T00711046  RH  043%=      5-min Rain = 0
KFR1 221009Z 24002KT 07/M05 A2965 RMK A01 T00711046  RH  043%=      5-min Rain = 0
KFR1 221010Z 24003KT 07/M05 A2965 RMK A01 T00691048  RH  043%=      5-min Rain = 0
KFR1 221011Z 24004KT 07/M05 A2965 RMK A01 T00681048  RH  043%=      5-min Rain = 0
KFR1 221012Z 25005KT 07/M05 A2965 RMK A01 T00671049  RH  043%=      5-min Rain = 0
KFR1 221013Z 23004KT 07/M05 A2965 RMK A01 T00681049  RH  043%=      5-min Rain = 0
KFR1 221014Z 23003KT 07/M05 A2965 RMK A01 T00691049  RH  043%=      5-min Rain = 0
KFR1 221015Z 23004KT 07/M05 A2965 RMK A01 T00681049  RH  043%=      5-min Rain = 0
KFR1 221016Z 30004KT 07/M05 A2965 RMK A01 T00671049  RH  043%=      5-min Rain = 0
KFR1 221017Z 26004KT 07/M05 A2965 RMK A01 T00671050  RH  043%=      5-min Rain = 0
KFR1 221018Z 25005KT 07/M05 A2965 RMK A01 T00691049  RH  043%=      5-min Rain = 0
KFR1 221019Z 27005KT 07/M05 A2965 RMK A01 T00691049  RH  043%=      5-min Rain = 0
KFR1 221020Z 28005KT 07/M05 A2965 RMK A01 T00691049  RH  043%=      5-min Rain = 0
KFR1 221021Z 27003KT 07/M05 A2965 RMK A01 T00701049  RH  043%=      5-min Rain = 0
KFR1 221022Z 25003KT 07/M05 A2965 RMK A01 T00701049  RH  042%=      5-min Rain = 0
KFR1 221023Z 26004KT 07/M05 A2965 RMK A01 T00701049  RH  042%=      5-min Rain = 0
KFR1 221024Z 22004KT 07/M05 A2965 RMK A01 T00691049  RH  042%=      5-min Rain = 0
KFR1 221025Z 25004KT 07/M05 A2965 RMK A01 T00691049  RH  043%=      5-min Rain = 0
KFR1 221026Z 25006KT 07/M05 A2965 RMK A01 T00691050  RH  042%=      5-min Rain = 0
KFR1 221027Z 26006KT 07/M05 A2966 RMK A01 T00681050  RH  043%=      5-min Rain = 0
KFR1 221028Z 24005KT 07/M05 A2966 RMK A01 T00681050  RH  043%=      5-min Rain = 0
KFR1 221029Z 25006KT 07/M05 A2966 RMK A01 T00691049  RH  043%=      5-min Rain = 0
KFR1 221030Z 25006KT 07/M05 A2966 RMK A01 T00691049  RH  043%=      5-min Rain = 0
KFR1 221031Z 25007KT 07/M05 A2966 RMK A01 T00691049  RH  043%=      5-min Rain = 0
KFR1 221032Z 25006KT 07/M05 A2965 RMK A01 T00691049  RH  043%=      5-min Rain = 0
KFR1 221033Z 25006KT 07/M05 A2965 RMK A01 T00681049  RH  043%=      5-min Rain = 0
KFR1 221034Z 25006KT 07/M05 A2965 RMK A01 T00671048  RH  044%=      5-min Rain = 0
KFR1 221035Z 26006KT 07/M05 A2965 RMK A01 T00671048  RH  044%=      5-min Rain = 0
KFR1 221036Z 26006KT 07/M05 A2965 RMK A01 T00661049  RH  044%=      5-min Rain = 0
KFR1 221037Z 26006KT 07/M05 A2965 RMK A01 T00661049  RH  044%=      5-min Rain = 0
KFR1 221038Z 25006KT 07/M05 A2965 RMK A01 T00661050  RH  043%=      5-min Rain = 0
KFR1 221039Z 27008KT 07/M05 A2965 RMK A01 T00671052  RH  042%=      5-min Rain = 0
KFR1 221040Z 27005KT 07/M05 A2965 RMK A01 T00691052  RH  042%=      5-min Rain = 0
KFR1 221041Z 26004KT 07/M05 A2965 RMK A01 T00711052  RH  041%=      5-min Rain = 0
KFR1 221042Z 25003KT 07/M05 A2965 RMK A01 T00701052  RH  041%=      5-min Rain = 0
KFR1 221043Z 26005KT 07/M05 A2965 RMK A01 T00701052  RH  042%=      5-min Rain = 0
KFR1 221044Z 27005KT 07/M05 A2965 RMK A01 T00691052  RH  042%=      5-min Rain = 0
KFR1 221045Z 25005KT 07/M05 A2965 RMK A01 T00691052  RH  042%=      5-min Rain = 0
KFR1 221046Z 26004KT 07/M05 A2965 RMK A01 T00671053  RH  042%=      5-min Rain = 0
KFR1 221047Z 26005KT 07/M05 A2966 RMK A01 T00651054  RH  042%=      5-min Rain = 0
KFR1 221048Z 25005KT 07/M06 A2965 RMK A01 T00651055  RH  042%=      5-min Rain = 0
KFR1 221049Z 25005KT 07/M06 A2965 RMK A01 T00651056  RH  042%=      5-min Rain = 0
KFR1 221050Z 25004KT 07/M06 A2965 RMK A01 T00651056  RH  042%=      5-min Rain = 0
KFR1 221051Z 25005KT 07/M06 A2966 RMK A01 T00661056  RH  042%=      5-min Rain = 0
KFR1 221052Z 25004KT 07/M06 A2966 RMK A01 T00661056  RH  041%=      5-min Rain = 0
KFR1 221053Z 25005KT 07/M06 A2966 RMK A01 T00651058  RH  041%=      5-min Rain = 0
KFR1 221054Z 26005KT 06/M06 A2966 RMK A01 T00641058  RH  041%=      5-min Rain = 0
KFR1 221055Z 25005KT 06/M06 A2966 RMK A01 T00641058  RH  041%=      5-min Rain = 0
KFR1 221056Z 26005KT 06/M06 A2966 RMK A01 T00641059  RH  041%=      5-min Rain = 0
KFR1 221057Z 26006KT 06/M06 A2966 RMK A01 T00641060  RH  041%=      5-min Rain = 0
KFR1 221058Z 26005KT 06/M06 A2966 RMK A01 T00641060  RH  041%=      5-min Rain = 0
KFR1 221059Z 27006KT 07/M06 A2966 RMK A01 T00651061  RH  040%=      5-min Rain = 0
KFR1 221100Z 27006KT 07/M06 A2966 RMK A01 T00661062  RH  040%=      5-min Rain = 0
KFR1 221101Z 26006KT 07/M06 A2965 RMK A01 T00661061  RH  040%=      5-min Rain = 0
KFR1 221102Z 29005KT 07/M06 A2965 RMK A01 T00661062  RH  039%=      5-min Rain = 0
KFR1 221103Z 28005KT 07/M06 A2965 RMK A01 T00671062  RH  039%=      5-min Rain = 0
KFR1 221104Z 29007KT 07/M06 A2965 RMK A01 T00671062  RH  039%=      5-min Rain = 0
KFR1 221105Z 29007KT 07/M06 A2965 RMK A01 T00671064  RH  039%=      5-min Rain = 0
KFR1 221106Z 29006KT 07/M06 A2965 RMK A01 T00671064  RH  039%=      5-min Rain = 0
KFR1 221107Z 27005KT 07/M06 A2966 RMK A01 T00681064  RH  038%=      5-min Rain = 0
KFR1 221108Z 29005KT 07/M06 A2966 RMK A01 T00681063  RH  039%=      5-min Rain = 0
KFR1 221109Z 30005KT 07/M06 A2966 RMK A01 T00681064  RH  039%=      5-min Rain = 0
KFR1 221110Z 28005KT 07/M07 A2966 RMK A01 T00681066  RH  038%=      5-min Rain = 0
KFR1 221111Z 27005KT 07/M07 A2966 RMK A01 T00681065  RH  038%=      5-min Rain = 0
KFR1 221112Z 26004KT 07/M06 A2966 RMK A01 T00691064  RH  038%=      5-min Rain = 0
KFR1 221113Z 27004KT 07/M06 A2966 RMK A01 T00681063  RH  039%=      5-min Rain = 0
KFR1 221114Z 28004KT 07/M06 A2966 RMK A01 T00661063  RH  039%=      5-min Rain = 0
KFR1 221115Z 28004KT 07/M06 A2966 RMK A01 T00661063  RH  039%=      5-min Rain = 0
KFR1 221116Z 28003KT 07/M06 A2966 RMK A01 T00661064  RH  039%=      5-min Rain = 0
KFR1 221117Z 29003KT 07/M06 A2966 RMK A01 T00651063  RH  039%=      5-min Rain = 0
KFR1 221118Z 30002KT 06/M06 A2967 RMK A01 T00641063  RH  040%=      5-min Rain = 0
KFR1 221119Z 29002KT 06/M06 A2967 RMK A01 T00631063  RH  040%=      5-min Rain = 0
KFR1 221120Z 29004KT 06/M06 A2967 RMK A01 T00621063  RH  040%=      5-min Rain = 0
KFR1 221121Z 28004KT 06/M06 A2967 RMK A01 T00621064  RH  040%=      5-min Rain = 0
KFR1 221122Z 30003KT 06/M06 A2967 RMK A01 T00621064  RH  040%=      5-min Rain = 0
KFR1 221123Z 28002KT 06/M06 A2967 RMK A01 T00631063  RH  040%=      5-min Rain = 0
KFR1 221124Z 29003KT 06/M06 A2967 RMK A01 T00631063  RH  040%=      5-min Rain = 0
KFR1 221125Z 28003KT 06/M06 A2967 RMK A01 T00631063  RH  040%=      5-min Rain = 0
KFR1 221126Z 28002KT 06/M06 A2967 RMK A01 T00631063  RH  040%=      5-min Rain = 0
KFR1 221127Z 31001KT 06/M06 A2968 RMK A01 T00621063  RH  040%=      5-min Rain = 0
KFR1 221128Z 32002KT 06/M06 A2968 RMK A01 T00611063  RH  041%=      5-min Rain = 0
KFR1 221129Z 32002KT 06/M06 A2968 RMK A01 T00611063  RH  041%=      5-min Rain = 0
KFR1 221130Z 33001KT 06/M06 A2968 RMK A01 T00611061  RH  041%=      5-min Rain = 0
KFR1 221131Z 30001KT 06/M06 A2968 RMK A01 T00611059  RH  042%=      5-min Rain = 0
KFR1 221132Z 26002KT 06/M06 A2967 RMK A01 T00601059  RH  042%=      5-min Rain = 0
KFR1 221133Z 26003KT 06/M06 A2967 RMK A01 T00601059  RH  042%=      5-min Rain = 0
KFR1 221134Z 26003KT 06/M06 A2967 RMK A01 T00601057  RH  043%=      5-min Rain = 0
KFR1 221135Z 28003KT 06/M06 A2968 RMK A01 T00601058  RH  043%=      5-min Rain = 0
KFR1 221136Z 32003KT 06/M06 A2968 RMK A01 T00591059  RH  042%=      5-min Rain = 0
KFR1 221137Z 35004KT 06/M06 A2968 RMK A01 T00591059  RH  042%=      5-min Rain = 0
KFR1 221138Z 01006KT 06/M06 A2968 RMK A01 T00591060  RH  042%=      5-min Rain = 0
KFR1 221139Z 02004KT 05/M06 A2968 RMK A01 T00531057  RH  045%=      5-min Rain = 0
KFR1 221140Z 01004KT 05/M06 A2968 RMK A01 T00461058  RH  047%=      5-min Rain = 0
KFR1 221141Z 35002KT 04/M06 A2968 RMK A01 T00431055  RH  049%=      5-min Rain = 0
KFR1 221142Z 26001KT 04/M05 A2968 RMK A01 T00431053  RH  050%=      5-min Rain = 0
KFR1 221143Z 28003KT 04/M05 A2968 RMK A01 T00431048  RH  052%=      5-min Rain = 0
KFR1 221144Z 30003KT 04/M05 A2968 RMK A01 T00431049  RH  051%=      5-min Rain = 0
KFR1 221145Z 33004KT 05/M05 A2968 RMK A01 T00461047  RH  051%=      5-min Rain = 0
KFR1 221146Z 35006KT 05/M05 A2968 RMK A01 T00471048  RH  050%=      5-min Rain = 0
KFR1 221147Z 36006KT 05/M05 A2968 RMK A01 T00491050  RH  049%=      5-min Rain = 0
KFR1 221148Z 36005KT 05/M05 A2968 RMK A01 T00491048  RH  049%=      5-min Rain = 0
KFR1 221149Z 33004KT 05/M05 A2968 RMK A01 T00491045  RH  051%=      5-min Rain = 0
KFR1 221150Z 33005KT 05/M04 A2968 RMK A01 T00491044  RH  051%=      5-min Rain = 0
KFR1 221151Z 35006KT 05/M05 A2968 RMK A01 T00481045  RH  051%=      5-min Rain = 0
KFR1 221152Z 01010KT 05/M04 A2969 RMK A01 T00471041  RH  053%=      5-min Rain = 0
KFR1 221153Z 01010KT 04/M03 A2969 RMK A01 T00431032  RH  058%=      5-min Rain = 0
KFR1 221154Z 01009KT 04/M03 A2969 RMK A01 T00391029  RH  061%=      5-min Rain = 0
KFR1 221155Z 00008KT 04/M03 A297 RMK A01 T00371027  RH  063%=      5-min Rain = 0
KFR1 221156Z 01008KT 04/M03 A297 RMK A01 T00361026  RH  064%=      5-min Rain = 0
KFR1 221157Z 01011KT 04/M03 A297 RMK A01 T00351031  RH  062%=      5-min Rain = 0
KFR1 221158Z 02008KT 04/M03 A297 RMK A01 T00361034  RH  060%=      5-min Rain = 0
KFR1 221159Z 02004KT 04/M03 A297 RMK A01 T00371034  RH  060%=      5-min Rain = 0
KFR1 221200Z 01005KT 04/M03 A2971 RMK A01 T00371034  RH  060%=      5-min Rain = 0
KFR1 221201Z 00012G18KT 04/M03 A2971 RMK A01 T00361032  RH  061%=      5-min Rain = 0
KFR1 221202Z 01019G25KT 04/M03 A2971 RMK A01 T00351032  RH  061%=      5-min Rain = 0
KFR1 221203Z 00020KT 03/M03 A2972 RMK A01 T00301030  RH  065%=      5-min Rain = 0
KFR1 221204Z 01017G23KT 03/M03 A2972 RMK A01 T00251028  RH  068%=      5-min Rain = 0
KFR1 221205Z 01018KT 02/M03 A2973 RMK A01 T00221026  RH  071%=      5-min Rain = 0
KFR1 221206Z 01021G26KT 02/M02 A2973 RMK A01 T00191024  RH  074%=      5-min Rain = 0
KFR1 221207Z 01022KT 01/M02 A2973 RMK A01 T00141024  RH  076%=      5-min Rain = 0
KFR1 221208Z 01023KT 01/M02 A2973 RMK A01 T00101024  RH  078%=      5-min Rain = 0
KFR1 221209Z 01022KT 01/M02 A2973 RMK A01 T00051023  RH  082%=      5-min Rain = 0
KFR1 221210Z 01020KT 00/M02 A2974 RMK A01 T00011021  RH  085%=      5-min Rain = 0
KFR1 221211Z 01017G23KT 00/02 A2974 RMK A01 T00000-19  RH  087%=      5-min Rain = 0
KFR1 221212Z 01015G21KT M00/M02 A2974 RMK A01 T10011018  RH  088%=      5-min Rain = 0
KFR1 221213Z 02015G22KT M00/M02 A2974 RMK A01 T10011017  RH  089%=      5-min Rain = 0
KFR1 221214Z 01015KT M00/M02 A2975 RMK A01 T10011017  RH  089%=      5-min Rain = 0
KFR1 221215Z 01016G23KT M00/M02 A2975 RMK A01 T10011017  RH  089%=      5-min Rain = 0
KFR1 221216Z 01014G19KT M00/M02 A2975 RMK A01 T10011016  RH  090%=      5-min Rain = 0
KFR1 221217Z 01012G18KT M00/M02 A2975 RMK A01 T10011015  RH  090%=      5-min Rain = 0
KFR1 221218Z 02012G18KT M00/M02 A2975 RMK A01 T10011015  RH  090%=      5-min Rain = 0
KFR1 221219Z 01016KT 00/01 A2975 RMK A01 T00-00-14  RH  090%=      5-min Rain = 0
KFR1 221220Z 01015G20KT M00/M01 A2975 RMK A01 T10011014  RH  091%=      5-min Rain = 0
KFR1 221221Z 01016G22KT M00/M01 A2975 RMK A01 T10011014  RH  091%=      5-min Rain = 0
KFR1 221222Z 02014G19KT M00/M01 A2975 RMK A01 T10011013  RH  091%=      5-min Rain = 0
KFR1 221223Z 01016KT 00/01 A2975 RMK A01 T00-00-13  RH  091%=      5-min Rain = 0
KFR1 221224Z 01015KT M00/M01 A2975 RMK A01 T10011013  RH  092%=      5-min Rain = 0
KFR1 221225Z 02015G21KT M00/M01 A2975 RMK A01 T10011013  RH  092%=      5-min Rain = 0
KFR1 221226Z 00016KT M00/M01 A2975 RMK A01 T10011012  RH  092%=      5-min Rain = 0
KFR1 221227Z 01015G22KT 00/01 A2975 RMK A01 T00000-11  RH  092%=      5-min Rain = 0
KFR1 221228Z 01013KT 00/M01 A2975 RMK A01 T00011010  RH  092%=      5-min Rain = 0
KFR1 221229Z 02015KT 00/M01 A2975 RMK A01 T00011010  RH  092%=      5-min Rain = 0
KFR1 221230Z 01016G22KT 00/M01 A2976 RMK A01 T00011011  RH  092%=      5-min Rain = 0
KFR1 221231Z 02019G24KT 00/M01 A2975 RMK A01 T00011010  RH  092%=      5-min Rain = 0
KFR1 221232Z 02019G24KT 00/M01 A2976 RMK A01 T00011010  RH  092%=      5-min Rain = 0
KFR1 221233Z 01016G23KT 00/M01 A2976 RMK A01 T00021010  RH  092%=      5-min Rain = 0
KFR1 221234Z 01015KT 00/M01 A2976 RMK A01 T00021010  RH  092%=      5-min Rain = 0
KFR1 221235Z 01016KT 00/M01 A2977 RMK A01 T00021009  RH  092%=      5-min Rain = 0
KFR1 221236Z 01015KT 00/M01 A2977 RMK A01 T00031009  RH  092%=      5-min Rain = 0
KFR1 221237Z 02017G22KT 00/M01 A2977 RMK A01 T00031009  RH  092%=      5-min Rain = 0
KFR1 221238Z 02014G19KT 00/M01 A2977 RMK A01 T00041009  RH  091%=      5-min Rain = 0
KFR1 221239Z 02014KT 00/M01 A2977 RMK A01 T00041010  RH  091%=      5-min Rain = 0
KFR1 221240Z 01016G21KT 00/M01 A2977 RMK A01 T00041010  RH  091%=      5-min Rain = 0
KFR1 221241Z 02012G17KT 00/M01 A2977 RMK A01 T00041010  RH  091%=      5-min Rain = 0
KFR1 221242Z 01016G21KT 00/M01 A2977 RMK A01 T00041010  RH  090%=      5-min Rain = 0
KFR1 221243Z 01018G23KT 00/M01 A2977 RMK A01 T00041011  RH  089%=      5-min Rain = 0
KFR1 221244Z 01017KT 00/M01 A2977 RMK A01 T00041012  RH  089%=      5-min Rain = 0
KFR1 221245Z 01016KT 00/M01 A2978 RMK A01 T00041012  RH  089%=      5-min Rain = 0
KFR1 221246Z 01015G22KT 01/M01 A2978 RMK A01 T00051011  RH  089%=      5-min Rain = 0
KFR1 221247Z 01014G20KT 01/M01 A2978 RMK A01 T00051012  RH  089%=      5-min Rain = 0
KFR1 221248Z 01018KT 00/M01 A2978 RMK A01 T00041013  RH  088%=      5-min Rain = 0
KFR1 221249Z 02019G27KT 00/M01 A2977 RMK A01 T00041014  RH  088%=      5-min Rain = 0
KFR1 221250Z 01020G27KT 00/M02 A2978 RMK A01 T00041015  RH  087%=      5-min Rain = 0
KFR1 221251Z 01019KT 00/M02 A2978 RMK A01 T00031016  RH  087%=      5-min Rain = 0
KFR1 221252Z 02019KT 00/M02 A2978 RMK A01 T00031016  RH  087%=      5-min Rain = 0
KFR1 221253Z 01019G25KT 00/M02 A2977 RMK A01 T00021017  RH  087%=      5-min Rain = 0
KFR1 221254Z 01021G28KT 00/M02 A2977 RMK A01 T00021017  RH  087%=      5-min Rain = 0
KFR1 221255Z 02020G27KT 00/M02 A2977 RMK A01 T00021017  RH  087%=      5-min Rain = 0
KFR1 221256Z 02021G27KT 00/M02 A2977 RMK A01 T00021018  RH  087%=      5-min Rain = 0
KFR1 221257Z 03020G25KT 00/M02 A2977 RMK A01 T00011018  RH  087%=      5-min Rain = 0
KFR1 221258Z 02020G26KT 00/M02 A2977 RMK A01 T00011018  RH  087%=      5-min Rain = 0
KFR1 221259Z 02017G24KT 00/M02 A2977 RMK A01 T00011018  RH  087%=      5-min Rain = 0
KFR1 221300Z 02016G21KT 00/M02 A2978 RMK A01 T00011018  RH  087%=      5-min Rain = 0
KFR1 221301Z 02018G24KT 00/M02 A2978 RMK A01 T00011018  RH  087%=      5-min Rain = 0
KFR1 221302Z 02017G24KT 00/M02 A2977 RMK A01 T00011018  RH  087%=      5-min Rain = 0
KFR1 221303Z 01017G24KT 00/M02 A2977 RMK A01 T00011018  RH  087%=      5-min Rain = 0
KFR1 221304Z 01017G23KT 00/M02 A2977 RMK A01 T00011018  RH  087%=      5-min Rain = 0
KFR1 221305Z 02015G22KT 00/M02 A2977 RMK A01 T00011017  RH  088%=      5-min Rain = 0
KFR1 221306Z 02015G20KT 00/M02 A2978 RMK A01 T00011017  RH  087%=      5-min Rain = 0
KFR1 221307Z 03016G23KT 00/M02 A2978 RMK A01 T00011018  RH  087%=      5-min Rain = 0
KFR1 221308Z 03020G25KT 00/M02 A2978 RMK A01 T00011018  RH  087%=      5-min Rain = 0
KFR1 221309Z 02014G23KT 00/M02 A2979 RMK A01 T00011019  RH  087%=      5-min Rain = 0
KFR1 221310Z 02016G22KT 00/M02 A2979 RMK A01 T00011018  RH  087%=      5-min Rain = 0
KFR1 221311Z 03012G17KT 00/02 A2979 RMK A01 T00-00-19  RH  087%=      5-min Rain = 0
KFR1 221312Z 02015G23KT 00/02 A2979 RMK A01 T00-00-19  RH  087%=      5-min Rain = 0
KFR1 221313Z 02015G24KT M00/M02 A2979 RMK A01 T10011020  RH  087%=      5-min Rain = 0
KFR1 221314Z 01019KT M00/M02 A298 RMK A01 T10011021  RH  086%=      5-min Rain = 0
KFR1 221315Z 02018G24KT M00/M02 A2979 RMK A01 T10011021  RH  087%=      5-min Rain = 0
KFR1 221316Z 01019G25KT M00/M02 A298 RMK A01 T10011021  RH  087%=      5-min Rain = 0
KFR1 221317Z 00021G26KT M00/M02 A298 RMK A01 T10011021  RH  087%=      5-min Rain = 0
KFR1 221318Z 01021G27KT M00/M02 A298 RMK A01 T10021022  RH  086%=      5-min Rain = 0
KFR1 221319Z 01022KT M00/M02 A298 RMK A01 T10021022  RH  086%=      5-min Rain = 0
KFR1 221320Z 01021G26KT M00/M02 A298 RMK A01 T10021022  RH  086%=      5-min Rain = 0
KFR1 221321Z 01021G26KT M00/M02 A298 RMK A01 T10021024  RH  086%=      5-min Rain = 0
KFR1 221322Z 01018G23KT M00/M02 A298 RMK A01 T10021023  RH  086%=      5-min Rain = 0
KFR1 221323Z 01019G26KT M00/M02 A298 RMK A01 T10021023  RH  086%=      5-min Rain = 0
KFR1 221324Z 02017G25KT M00/M02 A298 RMK A01 T10021022  RH  086%=      5-min Rain = 0
KFR1 221325Z 01025G30KT M00/M02 A298 RMK A01 T10031023  RH  086%=      5-min Rain = 0
KFR1 221326Z 02020G25KT M00/M03 A298 RMK A01 T10031025  RH  085%=      5-min Rain = 0
KFR1 221327Z 01021G28KT M00/M03 A298 RMK A01 T10041025  RH  085%=      5-min Rain = 0
KFR1 221328Z 01024KT M00/M03 A298 RMK A01 T10041026  RH  085%=      5-min Rain = 0
KFR1 221329Z 01018G23KT M00/M03 A298 RMK A01 T10041026  RH  085%=      5-min Rain = 0
KFR1 221330Z 01021KT M00/M03 A298 RMK A01 T10041025  RH  086%=      5-min Rain = 0
KFR1 221331Z 01021KT M00/M03 A298 RMK A01 T10041025  RH  086%=      5-min Rain = 0
KFR1 221332Z 01017KT M00/M02 A298 RMK A01 T10041024  RH  086%=      5-min Rain = 0
KFR1 221333Z 02015G20KT M00/M02 A298 RMK A01 T10031024  RH  086%=      5-min Rain = 0
KFR1 221334Z 02013G18KT M00/M02 A298 RMK A01 T10031024  RH  086%=      5-min Rain = 0
KFR1 221335Z 01020KT M00/M03 A298 RMK A01 T10031025  RH  085%=      5-min Rain = 0
KFR1 221336Z 02019G24KT M00/M03 A298 RMK A01 T10031025  RH  085%=      5-min Rain = 0
KFR1 221337Z 01016G23KT M00/M03 A2981 RMK A01 T10031025  RH  085%=      5-min Rain = 0
KFR1 221338Z 02015G22KT M00/M03 A2981 RMK A01 T10041025  RH  085%=      5-min Rain = 0
KFR1 221339Z 02017G22KT M00/M03 A2981 RMK A01 T10031025  RH  086%=      5-min Rain = 0
KFR1 221340Z 02016G22KT M00/M03 A2981 RMK A01 T10031025  RH  085%=      5-min Rain = 0
KFR1 221341Z 01016G23KT M00/M03 A2981 RMK A01 T10031026  RH  085%=      5-min Rain = 0
KFR1 221342Z 02018G25KT M00/M03 A2981 RMK A01 T10031026  RH  085%=      5-min Rain = 0
KFR1 221343Z 01017G22KT M00/M03 A2981 RMK A01 T10031027  RH  084%=      5-min Rain = 0
KFR1 221344Z 02018G23KT M00/M03 A2981 RMK A01 T10041028  RH  084%=      5-min Rain = 0
KFR1 221345Z 01017G22KT M00/M03 A2982 RMK A01 T10041029  RH  083%=      5-min Rain = 0
KFR1 221346Z 01016KT M00/M03 A2982 RMK A01 T10041028  RH  084%=      5-min Rain = 0
KFR1 221347Z 01018G24KT M00/M03 A2982 RMK A01 T10041028  RH  084%=      5-min Rain = 0
KFR1 221348Z 01019KT M00/M03 A2982 RMK A01 T10041029  RH  083%=      5-min Rain = 0
KFR1 221349Z 01019G25KT M00/M03 A2982 RMK A01 T10041028  RH  083%=      5-min Rain = 0
KFR1 221350Z 01019KT M00/M03 A2981 RMK A01 T10041029  RH  083%=      5-min Rain = 0
KFR1 221351Z 02019G25KT M00/M03 A2981 RMK A01 T10041029  RH  083%=      5-min Rain = 0
KFR1 221352Z 01017G27KT M00/M03 A2982 RMK A01 T10041029  RH  083%=      5-min Rain = 0
KFR1 221353Z 02017G28KT M01/M03 A2982 RMK A01 T10051031  RH  082%=      5-min Rain = 0
KFR1 221354Z 02015G23KT M01/M03 A2982 RMK A01 T10061033  RH  082%=      5-min Rain = 0
KFR1 221355Z 01019G24KT M01/M03 A2982 RMK A01 T10061033  RH  082%=      5-min Rain = 0
KFR1 221356Z 02019G26KT M01/M03 A2982 RMK A01 T10071034  RH  082%=      5-min Rain = 0
KFR1 221357Z 01019G25KT M01/M04 A2982 RMK A01 T10071035  RH  082%=      5-min Rain = 0
KFR1 221358Z 01018G23KT M01/M03 A2982 RMK A01 T10081034  RH  082%=      5-min Rain = 0
KFR1 221359Z 01018KT M01/M03 A2983 RMK A01 T10081033  RH  083%=      5-min Rain = 0
KFR1 221400Z 00019G25KT M01/M03 A2983 RMK A01 T10081033  RH  083%=      5-min Rain = 0
KFR1 221401Z 00022KT M01/M04 A2983 RMK A01 T10081035  RH  082%=      5-min Rain = 0
KFR1 221402Z 00021KT M01/M04 A2983 RMK A01 T10081035  RH  082%=      5-min Rain = 0
KFR1 221403Z 00019G25KT M01/M04 A2983 RMK A01 T10081035  RH  082%=      5-min Rain = 0
KFR1 221404Z 01018KT M01/M03 A2983 RMK A01 T10081034  RH  083%=      5-min Rain = 0
KFR1 221405Z 00019G27KT M01/M04 A2983 RMK A01 T10081035  RH  082%=      5-min Rain = 0
KFR1 221406Z 36018KT M01/M04 A2984 RMK A01 T10091036  RH  082%=      5-min Rain = 0
KFR1 221407Z 00014G20KT M01/M04 A2985 RMK A01 T10091036  RH  082%=      5-min Rain = 0
KFR1 221408Z 00019G25KT M01/M04 A2985 RMK A01 T10091035  RH  083%=      5-min Rain = 0
KFR1 221409Z 36018KT M01/M04 A2985 RMK A01 T10091036  RH  082%=      5-min Rain = 0
KFR1 221410Z 00015G20KT M01/M04 A2985 RMK A01 T10091036  RH  082%=      5-min Rain = 0
KFR1 221411Z 01017G23KT M01/M03 A2985 RMK A01 T10081033  RH  083%=      5-min Rain = 0
KFR1 221412Z 01017G23KT M01/M03 A2985 RMK A01 T10081034  RH  082%=      5-min Rain = 0
KFR1 221413Z 01020KT M01/M04 A2985 RMK A01 T10081036  RH  082%=      5-min Rain = 0
KFR1 221414Z 01018KT M01/M04 A2985 RMK A01 T10081036  RH  082%=      5-min Rain = 0
KFR1 221415Z 01022G28KT M01/M04 A2985 RMK A01 T10081036  RH  082%=      5-min Rain = 0
KFR1 221416Z 00018G24KT M01/M04 A2986 RMK A01 T10091037  RH  081%=      5-min Rain = 0
KFR1 221417Z 36017G24KT M01/M04 A2986 RMK A01 T10091037  RH  082%=      5-min Rain = 0
KFR1 221418Z 01016G23KT M01/M04 A2986 RMK A01 T10091036  RH  082%=      5-min Rain = 0
KFR1 221419Z 36019G24KT M01/M04 A2986 RMK A01 T10091036  RH  082%=      5-min Rain = 0
KFR1 221420Z 00022KT M01/M04 A2986 RMK A01 T10091038  RH  081%=      5-min Rain = 0
KFR1 221421Z 00020KT M01/M04 A2986 RMK A01 T10101039  RH  081%=      5-min Rain = 0
KFR1 221422Z 36019G26KT M01/M04 A2986 RMK A01 T10101039  RH  081%=      5-min Rain = 0
KFR1 221423Z 36022KT M01/M04 A2986 RMK A01 T10111038  RH  082%=      5-min Rain = 0
KFR1 221424Z 00021KT M01/M04 A2986 RMK A01 T10101039  RH  081%=      5-min Rain = 0
KFR1 221425Z 36018G23KT M01/M04 A2986 RMK A01 T10111039  RH  081%=      5-min Rain = 0
KFR1 221426Z 36019G24KT M01/M04 A2986 RMK A01 T10111038  RH  082%=      5-min Rain = 0
KFR1 221427Z 00017G23KT M01/M04 A2987 RMK A01 T10111039  RH  081%=      5-min Rain = 0
KFR1 221428Z 00020G25KT M01/M04 A2987 RMK A01 T10121039  RH  081%=      5-min Rain = 0
KFR1 221429Z 35019KT M01/M04 A2987 RMK A01 T10111039  RH  082%=      5-min Rain = 0
KFR1 221430Z 35021G26KT M01/M04 A2987 RMK A01 T10121039  RH  082%=      5-min Rain = 0
KFR1 221431Z 36020G25KT M01/M04 A2987 RMK A01 T10121039  RH  082%=      5-min Rain = 0
KFR1 221432Z 00019KT M01/M04 A2987 RMK A01 T10121039  RH  082%=      5-min Rain = 0
KFR1 221433Z 00019G27KT M01/M04 A2987 RMK A01 T10121038  RH  082%=      5-min Rain = 0
KFR1 221434Z 00022KT M01/M04 A2987 RMK A01 T10121038  RH  082%=      5-min Rain = 0
KFR1 221435Z 36021G26KT M01/M04 A2987 RMK A01 T10121039  RH  082%=      5-min Rain = 0
KFR1 221436Z 36019KT M01/M04 A2987 RMK A01 T10121040  RH  082%=      5-min Rain = 0
KFR1 221437Z 00019KT M01/M04 A2988 RMK A01 T10131040  RH  082%=      5-min Rain = 0
KFR1 221438Z 00017KT M01/M04 A2988 RMK A01 T10131039  RH  082%=      5-min Rain = 0
KFR1 221439Z 00016KT M01/M04 A2988 RMK A01 T10121039  RH  082%=      5-min Rain = 0
KFR1 221440Z 00015KT M01/M04 A2988 RMK A01 T10121038  RH  083%=      5-min Rain = 0
KFR1 221441Z 01015KT M01/M04 A2988 RMK A01 T10121038  RH  083%=      5-min Rain = 0
KFR1 221442Z 02014KT M01/M04 A2988 RMK A01 T10121037  RH  084%=      5-min Rain = 0
KFR1 221443Z 02019G25KT M01/M04 A2988 RMK A01 T10121036  RH  084%=      5-min Rain = 0
KFR1 221444Z 01021G28KT M01/M04 A2987 RMK A01 T10131039  RH  082%=      5-min Rain = 0
KFR1 221445Z 01019G24KT M01/M04 A2988 RMK A01 T10141041  RH  082%=      5-min Rain = 0
KFR1 221446Z 01020G26KT M01/M04 A2988 RMK A01 T10141040  RH  082%=      5-min Rain = 0
KFR1 221447Z 01020G27KT M01/M04 A2988 RMK A01 T10141040  RH  083%=      5-min Rain = 0
KFR1 221448Z 02022KT M01/M04 A2988 RMK A01 T10141040  RH  083%=      5-min Rain = 0
KFR1 221449Z 01019G27KT M01/M04 A2988 RMK A01 T10141040  RH  083%=      5-min Rain = 0
KFR1 221450Z 01019G24KT M01/M04 A2988 RMK A01 T10141040  RH  083%=      5-min Rain = 0
KFR1 221451Z 01017KT M01/M04 A2988 RMK A01 T10141040  RH  083%=      5-min Rain = 0
KFR1 221452Z 01019G24KT M01/M04 A2988 RMK A01 T10141040  RH  083%=      5-min Rain = 0
KFR1 221453Z 01017G23KT M01/M04 A2988 RMK A01 T10141040  RH  083%=      5-min Rain = 0
KFR1 221454Z 01018KT M01/M04 A2988 RMK A01 T10141041  RH  082%=      5-min Rain = 0
KFR1 221455Z 01016KT M01/M04 A2988 RMK A01 T10141040  RH  083%=      5-min Rain = 0
KFR1 221456Z 01014G19KT M01/M04 A2988 RMK A01 T10141039  RH  083%=      5-min Rain = 0
KFR1 221457Z 01021G28KT M01/M04 A2988 RMK A01 T10131039  RH  083%=      5-min Rain = 0
KFR1 221458Z 01020G26KT M01/M04 A2988 RMK A01 T10131040  RH  082%=      5-min Rain = 0
KFR1 221459Z 01021G26KT M01/M04 A2988 RMK A01 T10141040  RH  082%=      5-min Rain = 0
KFR1 221500Z 00022KT M01/M04 A2988 RMK A01 T10131040  RH  082%=      5-min Rain = 0
KFR1 221501Z 00021G26KT M01/M04 A2988 RMK A01 T10131039  RH  082%=      5-min Rain = 0
KFR1 221502Z 00023G28KT M01/M04 A2988 RMK A01 T10121039  RH  082%=      5-min Rain = 0
KFR1 221503Z 01024G29KT M01/M04 A2988 RMK A01 T10121039  RH  082%=      5-min Rain = 0
KFR1 221504Z 00021G27KT M01/M04 A2988 RMK A01 T10121040  RH  082%=      5-min Rain = 0
KFR1 221505Z 00020KT M01/M04 A2988 RMK A01 T10121039  RH  082%=      5-min Rain = 0
KFR1 221506Z 00019KT M01/M04 A2988 RMK A01 T10121039  RH  082%=      5-min Rain = 0
KFR1 221507Z 01017KT M01/M04 A2988 RMK A01 T10121039  RH  082%=      5-min Rain = 0
KFR1 221508Z 02013G19KT M01/M04 A2989 RMK A01 T10121040  RH  082%=      5-min Rain = 0
KFR1 221509Z 01017G24KT M01/M04 A2988 RMK A01 T10121039  RH  082%=      5-min Rain = 0
KFR1 221510Z 02019G25KT M01/M04 A2988 RMK A01 T10121039  RH  082%=      5-min Rain = 0
KFR1 221511Z 02018G24KT M01/M04 A2989 RMK A01 T10121040  RH  082%=      5-min Rain = 0
KFR1 221512Z 02017KT M01/M04 A2989 RMK A01 T10131040  RH  082%=      5-min Rain = 0
KFR1 221513Z 01019G27KT M01/M04 A2989 RMK A01 T10131041  RH  081%=      5-min Rain = 0
KFR1 221514Z 01018G28KT M01/M04 A2989 RMK A01 T10131041  RH  081%=      5-min Rain = 0
KFR1 221515Z 02018G23KT M01/M04 A2989 RMK A01 T10131041  RH  081%=      5-min Rain = 0
KFR1 221516Z 02019G29KT M01/M04 A2989 RMK A01 T10131041  RH  082%=      5-min Rain = 0
KFR1 221517Z 01021G29KT M01/M04 A2989 RMK A01 T10131040  RH  082%=      5-min Rain = 0
KFR1 221518Z 02019G25KT M01/M04 A2989 RMK A01 T10131041  RH  081%=      5-min Rain = 0
KFR1 221519Z 02017G24KT M01/M04 A2989 RMK A01 T10131041  RH  081%=      5-min Rain = 0
KFR1 221520Z 01021KT M01/M04 A2989 RMK A01 T10131041  RH  082%=      5-min Rain = 0
KFR1 221521Z 01020G25KT M01/M04 A2989 RMK A01 T10121040  RH  081%=      5-min Rain = 0
KFR1 221522Z 01023G33KT M01/M04 A2989 RMK A01 T10121040  RH  081%=      5-min Rain = 0
KFR1 221523Z 01023G30KT M01/M04 A2989 RMK A01 T10121040  RH  081%=      5-min Rain = 0
KFR1 221524Z 36021KT M01/M04 A2989 RMK A01 T10121041  RH  081%=      5-min Rain = 0
KFR1 221525Z 01020G27KT M01/M04 A299 RMK A01 T10121041  RH  081%=      5-min Rain = 0
KFR1 221526Z 00023G32KT M01/M04 A299 RMK A01 T10121041  RH  081%=      5-min Rain = 0
KFR1 221527Z 00021G27KT M01/M04 A299 RMK A01 T10121041  RH  081%=      5-min Rain = 0
KFR1 221528Z 01025G31KT M01/M04 A299 RMK A01 T10121041  RH  081%=      5-min Rain = 0
KFR1 221529Z 02021KT M01/M04 A299 RMK A01 T10121041  RH  081%=      5-min Rain = 0
KFR1 221530Z 01019G26KT M01/M04 A299 RMK A01 T10131042  RH  081%=      5-min Rain = 0
KFR1 221531Z 01018KT M01/M04 A299 RMK A01 T10131042  RH  081%=      5-min Rain = 0
KFR1 221532Z 01021G30KT M01/M04 A299 RMK A01 T10121041  RH  081%=      5-min Rain = 0
KFR1 221533Z 02022KT M01/M04 A299 RMK A01 T10131041  RH  081%=      5-min Rain = 0
KFR1 221534Z 01022G27KT M01/M04 A299 RMK A01 T10121041  RH  081%=      5-min Rain = 0
KFR1 221535Z 01022G30KT M01/M04 A299 RMK A01 T10131042  RH  081%=      5-min Rain = 0
KFR1 221536Z 01020G26KT M01/M04 A299 RMK A01 T10131041  RH  081%=      5-min Rain = 0
KFR1 221537Z 01019G26KT M01/M04 A299 RMK A01 T10131040  RH  081%=      5-min Rain = 0
KFR1 221538Z 01019G24KT M01/M04 A299 RMK A01 T10121040  RH  081%=      5-min Rain = 0
KFR1 221539Z 01019KT M01/M04 A299 RMK A01 T10121039  RH  082%=      5-min Rain = 0
KFR1 221540Z 01019G26KT M01/M04 A299 RMK A01 T10111038  RH  082%=      5-min Rain = 0
KFR1 221541Z 02021G27KT M01/M04 A2989 RMK A01 T10111038  RH  082%=      5-min Rain = 0
KFR1 221542Z 01021G30KT M01/M04 A2989 RMK A01 T10111040  RH  081%=      5-min Rain = 0
KFR1 221543Z 01021G26KT M01/M04 A299 RMK A01 T10111041  RH  080%=      5-min Rain = 0
KFR1 221544Z 00022G30KT M01/M04 A299 RMK A01 T10111042  RH  080%=      5-min Rain = 0
KFR1 221545Z 00020G27KT M01/M04 A299 RMK A01 T10111041  RH  081%=      5-min Rain = 0
KFR1 221546Z 01018G27KT M01/M04 A299 RMK A01 T10111039  RH  081%=      5-min Rain = 0
KFR1 221547Z 01019G27KT M01/M04 A299 RMK A01 T10111038  RH  082%=      5-min Rain = 0
KFR1 221548Z 01022G29KT M01/M04 A299 RMK A01 T10101039  RH  081%=      5-min Rain = 0
KFR1 221549Z 01023G30KT M01/M04 A299 RMK A01 T10101040  RH  080%=      5-min Rain = 0
KFR1 221550Z 01025G33KT M01/M04 A299 RMK A01 T10111042  RH  079%=      5-min Rain = 0
KFR1 221551Z 01023G29KT M01/M04 A299 RMK A01 T10111042  RH  080%=      5-min Rain = 0
KFR1 221552Z 00022G27KT M01/M04 A299 RMK A01 T10111042  RH  080%=      5-min Rain = 0
KFR1 221553Z 36024G29KT M01/M04 A2991 RMK A01 T10111041  RH  080%=      5-min Rain = 0
KFR1 221554Z 00025G33KT M01/M04 A2991 RMK A01 T10111040  RH  081%=      5-min Rain = 0
KFR1 221555Z 01028G33KT M01/M04 A2991 RMK A01 T10111041  RH  080%=      5-min Rain = 0
KFR1 221556Z 01022G29KT M01/M04 A299 RMK A01 T10121042  RH  080%=      5-min Rain = 0
KFR1 221557Z 01026KT M01/M04 A299 RMK A01 T10111041  RH  080%=      5-min Rain = 0
KFR1 221558Z 01026G32KT M01/M04 A299 RMK A01 T10111041  RH  080%=      5-min Rain = 0
KFR1 221559Z 02021G29KT M01/M04 A2991 RMK A01 T10121041  RH  080%=      5-min Rain = 0
KFR1 221600Z 01024G33KT M01/M04 A2991 RMK A01 T10121042  RH  080%=      5-min Rain = 0
KFR1 221601Z 01021G26KT M01/M04 A2991 RMK A01 T10121042  RH  080%=      5-min Rain = 0
KFR1 221602Z 01020KT M01/M04 A2991 RMK A01 T10121042  RH  080%=      5-min Rain = 0
KFR1 221603Z 00023G32KT M01/M04 A2991 RMK A01 T10121042  RH  080%=      5-min Rain = 0
KFR1 221604Z 01021G28KT M01/M04 A2991 RMK A01 T10121042  RH  080%=      5-min Rain = 0
KFR1 221605Z 01021G27KT M01/M04 A2991 RMK A01 T10121040  RH  081%=      5-min Rain = 0
KFR1 221606Z 01021G28KT M01/M04 A2991 RMK A01 T10111039  RH  081%=      5-min Rain = 0
KFR1 221607Z 01019G26KT M01/M04 A2991 RMK A01 T10111040  RH  081%=      5-min Rain = 0
KFR1 221608Z 01020G25KT M01/M04 A2991 RMK A01 T10111041  RH  080%=      5-min Rain = 0
KFR1 221609Z 00025KT M01/M04 A2992 RMK A01 T10111040  RH  081%=      5-min Rain = 0
KFR1 221610Z 00022KT M01/M04 A2992 RMK A01 T10111041  RH  080%=      5-min Rain = 0
KFR1 221611Z 00021G31KT M01/M04 A2992 RMK A01 T10111041  RH  080%=      5-min Rain = 0
KFR1 221612Z 36020G27KT M01/M04 A2992 RMK A01 T10111042  RH  079%=      5-min Rain = 0
KFR1 221613Z 00022G28KT M01/M04 A2992 RMK A01 T10111042  RH  079%=      5-min Rain = 0
KFR1 221614Z 01023G31KT M01/M04 A2992 RMK A01 T10111042  RH  079%=      5-min Rain = 0
KFR1 221615Z 00024G30KT M01/M04 A2992 RMK A01 T10101042  RH  079%=      5-min Rain = 0
KFR1 221616Z 01020KT M01/M04 A2992 RMK A01 T10111043  RH  079%=      5-min Rain = 0
KFR1 221617Z 00020KT M01/M04 A2992 RMK A01 T10101042  RH  079%=      5-min Rain = 0
KFR1 221618Z 01020G27KT M01/M04 A2992 RMK A01 T10101041  RH  079%=      5-min Rain = 0
KFR1 221619Z 00021G26KT M01/M04 A2992 RMK A01 T10101043  RH  079%=      5-min Rain = 0
KFR1 221620Z 36024G29KT M01/M04 A2992 RMK A01 T10101042  RH  079%=      5-min Rain = 0
KFR1 221621Z 35024G29KT M01/M04 A2992 RMK A01 T10111042  RH  079%=      5-min Rain = 0
KFR1 221622Z 35020G25KT M01/M04 A2992 RMK A01 T10121043  RH  080%=      5-min Rain = 0
KFR1 221623Z 34018G23KT M01/M04 A2993 RMK A01 T10131043  RH  080%=      5-min Rain = 0
KFR1 221624Z 35016G24KT M01/M04 A2993 RMK A01 T10141042  RH  081%=      5-min Rain = 0
KFR1 221625Z 35020G26KT M01/M04 A2993 RMK A01 T10141042  RH  082%=      5-min Rain = 0
KFR1 221626Z 35019G27KT M02/M04 A2993 RMK A01 T10151044  RH  081%=      5-min Rain = 0
KFR1 221627Z 36021G29KT M02/M05 A2993 RMK A01 T10161045  RH  081%=      5-min Rain = 0
KFR1 221628Z 35026G31KT M02/M04 A2993 RMK A01 T10161044  RH  081%=      5-min Rain = 0
KFR1 221629Z 35025KT M02/M05 A2993 RMK A01 T10171046  RH  081%=      5-min Rain = 0
KFR1 221630Z 36021KT M02/M05 A2993 RMK A01 T10181047  RH  080%=      5-min Rain = 0
KFR1 221631Z 35019G25KT M02/M05 A2993 RMK A01 T10171046  RH  081%=      5-min Rain = 0
KFR1 221632Z 36021KT M02/M05 A2993 RMK A01 T10171046  RH  081%=      5-min Rain = 0
KFR1 221633Z 00024KT M02/M05 A2993 RMK A01 T10181047  RH  080%=      5-min Rain = 0
KFR1 221634Z 35018G23KT M02/M05 A2994 RMK A01 T10171047  RH  080%=      5-min Rain = 0
KFR1 221635Z 36019G25KT M02/M05 A2994 RMK A01 T10171046  RH  081%=      5-min Rain = 0
KFR1 221636Z 35018G24KT M02/M05 A2994 RMK A01 T10171046  RH  081%=      5-min Rain = 0
KFR1 221637Z 35022G28KT M02/M05 A2994 RMK A01 T10171047  RH  080%=      5-min Rain = 0
KFR1 221638Z 36019KT M02/M05 A2994 RMK A01 T10181049  RH  079%=      5-min Rain = 0
KFR1 221639Z 36021KT M02/M05 A2994 RMK A01 T10181047  RH  080%=      5-min Rain = 0
KFR1 221640Z 35021G26KT M02/M05 A2994 RMK A01 T10181048  RH  080%=      5-min Rain = 0
KFR1 221641Z 36020G25KT M02/M05 A2994 RMK A01 T10181049  RH  079%=      5-min Rain = 0
KFR1 221642Z 35021KT M02/M05 A2994 RMK A01 T10181049  RH  079%=      5-min Rain = 0
KFR1 221643Z 00018G25KT M02/M05 A2994 RMK A01 T10181050  RH  079%=      5-min Rain = 0
KFR1 221644Z 00020KT M02/M05 A2994 RMK A01 T10181048  RH  080%=      5-min Rain = 0
KFR1 221645Z 36019G24KT M02/M05 A2994 RMK A01 T10181048  RH  080%=      5-min Rain = 0
KFR1 221646Z 01019G25KT M02/M05 A2995 RMK A01 T10181050  RH  079%=      5-min Rain = 0
KFR1 221647Z 00020G25KT M02/M05 A2995 RMK A01 T10191050  RH  079%=      5-min Rain = 0
KFR1 221648Z 36018KT M02/M05 A2995 RMK A01 T10181049  RH  080%=      5-min Rain = 0
KFR1 221649Z 34018G23KT M02/M05 A2995 RMK A01 T10181050  RH  079%=      5-min Rain = 0
KFR1 221650Z 35018KT M02/M05 A2995 RMK A01 T10191053  RH  078%=      5-min Rain = 0
KFR1 221651Z 34016G23KT M02/M05 A2995 RMK A01 T10201054  RH  078%=      5-min Rain = 0
KFR1 221652Z 35019G25KT M02/M05 A2995 RMK A01 T10201053  RH  078%=      5-min Rain = 0
KFR1 221653Z 36021G27KT M02/M05 A2995 RMK A01 T10201054  RH  078%=      5-min Rain = 0
KFR1 221654Z 35018G25KT M02/M05 A2995 RMK A01 T10201054  RH  077%=      5-min Rain = 0
KFR1 221655Z 35024G30KT M02/M06 A2995 RMK A01 T10201055  RH  077%=      5-min Rain = 0
KFR1 221656Z 35020G26KT M02/M06 A2995 RMK A01 T10211055  RH  077%=      5-min Rain = 0
KFR1 221657Z 35022KT M02/M06 A2995 RMK A01 T10211055  RH  078%=      5-min Rain = 0
KFR1 221658Z 35024G30KT M02/M05 A2996 RMK A01 T10211054  RH  078%=      5-min Rain = 0
KFR1 221659Z 36021G26KT M02/M06 A2996 RMK A01 T10221056  RH  077%=      5-min Rain = 0
KFR1 221700Z 36021KT M02/M06 A2996 RMK A01 T10211055  RH  078%=      5-min Rain = 0
KFR1 221701Z 36019G25KT M02/M06 A2996 RMK A01 T10221055  RH  078%=      5-min Rain = 0
KFR1 221702Z 36020G25KT M02/M05 A2996 RMK A01 T10211054  RH  078%=      5-min Rain = 0
KFR1 221703Z 36020G25KT M02/M06 A2996 RMK A01 T10221056  RH  077%=      5-min Rain = 0
KFR1 221704Z 00020G26KT M02/M06 A2996 RMK A01 T10221057  RH  077%=      5-min Rain = 0
KFR1 221705Z 00021G26KT M02/M06 A2997 RMK A01 T10221055  RH  078%=      5-min Rain = 0
KFR1 221706Z 01019KT M02/M05 A2997 RMK A01 T10211054  RH  078%=      5-min Rain = 0
KFR1 221707Z 01020G25KT M02/M05 A2997 RMK A01 T10211054  RH  078%=      5-min Rain = 0
KFR1 221708Z 36022KT M02/M06 A2997 RMK A01 T10221056  RH  078%=      5-min Rain = 0
KFR1 221709Z 35019G24KT M02/M06 A2997 RMK A01 T10221055  RH  078%=      5-min Rain = 0
KFR1 221710Z 35017G25KT M02/M06 A2997 RMK A01 T10211056  RH  077%=      5-min Rain = 0
KFR1 221711Z 35021G28KT M02/M06 A2997 RMK A01 T10221058  RH  076%=      5-min Rain = 0
KFR1 221712Z 35021G28KT M02/M06 A2997 RMK A01 T10231061  RH  075%=      5-min Rain = 0
KFR1 221713Z 36016G22KT M02/M06 A2997 RMK A01 T10231060  RH  076%=      5-min Rain = 0
KFR1 221714Z 36019KT M02/M06 A2998 RMK A01 T10231059  RH  076%=      5-min Rain = 0
KFR1 221715Z 36019G24KT M02/M06 A2997 RMK A01 T10221060  RH  075%=      5-min Rain = 0
KFR1 221716Z 36019G29KT M02/M06 A2997 RMK A01 T10221060  RH  075%=      5-min Rain = 0
KFR1 221717Z 36019G27KT M02/M06 A2997 RMK A01 T10211060  RH  075%=      5-min Rain = 0
KFR1 221718Z 36022G28KT M02/M06 A2997 RMK A01 T10211062  RH  074%=      5-min Rain = 0
KFR1 221719Z 36019G26KT M02/M06 A2998 RMK A01 T10211063  RH  073%=      5-min Rain = 0
KFR1 221720Z 36017KT M02/M06 A2998 RMK A01 T10211063  RH  073%=      5-min Rain = 0
KFR1 221721Z 35017G22KT M02/M06 A2998 RMK A01 T10201061  RH  074%=      5-min Rain = 0
KFR1 221722Z 35015G21KT M02/M06 A2998 RMK A01 T10201062  RH  073%=      5-min Rain = 0
KFR1 221723Z 00019KT M02/M06 A2998 RMK A01 T10201063  RH  072%=      5-min Rain = 0
KFR1 221724Z 35016G21KT M02/M06 A2998 RMK A01 T10201063  RH  072%=      5-min Rain = 0
KFR1 221725Z 34015KT M02/M06 A2997 RMK A01 T10201062  RH  073%=      5-min Rain = 0
KFR1 221726Z 34016G22KT M02/M06 A2997 RMK A01 T10201064  RH  071%=      5-min Rain = 0
KFR1 221727Z 35018G23KT M02/M07 A2997 RMK A01 T10201066  RH  071%=      5-min Rain = 0
KFR1 221728Z 00019G27KT M02/M07 A2997 RMK A01 T10211065  RH  071%=      5-min Rain = 0
KFR1 221729Z 00019G24KT M02/M07 A2998 RMK A01 T10211065  RH  072%=      5-min Rain = 0
KFR1 221730Z 00022G28KT M02/M07 A2997 RMK A01 T10211065  RH  072%=      5-min Rain = 0
KFR1 221731Z 00023G30KT M02/M07 A2997 RMK A01 T10221066  RH  072%=      5-min Rain = 0
KFR1 221732Z 36021G27KT M02/M07 A2997 RMK A01 T10231067  RH  072%=      5-min Rain = 0
KFR1 221733Z 00019G25KT M02/M07 A2998 RMK A01 T10241067  RH  072%=      5-min Rain = 0
KFR1 221734Z 00021KT M02/M07 A2998 RMK A01 T10241067  RH  072%=      5-min Rain = 0
KFR1 221735Z 35019G26KT M02/M07 A2998 RMK A01 T10241068  RH  072%=      5-min Rain = 0
KFR1 221736Z 35021G26KT M02/M07 A2998 RMK A01 T10241068  RH  072%=      5-min Rain = 0
KFR1 221737Z 35021G26KT M02/M07 A2998 RMK A01 T10241069  RH  071%=      5-min Rain = 0
KFR1 221738Z 36022G29KT M03/M07 A2998 RMK A01 T10251070  RH  071%=      5-min Rain = 0
KFR1 221739Z 34021G26KT M03/M07 A2998 RMK A01 T10251070  RH  071%=      5-min Rain = 0
KFR1 221740Z 35019KT M03/M07 A2998 RMK A01 T10251070  RH  072%=      5-min Rain = 0
KFR1 221741Z 35018G26KT M03/M07 A2998 RMK A01 T10251069  RH  072%=      5-min Rain = 0
KFR1 221742Z 35019G26KT M03/M07 A2998 RMK A01 T10251069  RH  072%=      5-min Rain = 0
KFR1 221743Z 35015G20KT M03/M07 A2999 RMK A01 T10251070  RH  071%=      5-min Rain = 0
KFR1 221744Z 35018KT M02/M07 A2999 RMK A01 T10241066  RH  073%=      5-min Rain = 0
KFR1 221745Z 35017G23KT M02/M07 A2999 RMK A01 T10231065  RH  073%=      5-min Rain = 0
KFR1 221746Z 35015G20KT M02/M07 A2999 RMK A01 T10221066  RH  072%=      5-min Rain = 0
KFR1 221747Z 35016G22KT M02/M07 A2999 RMK A01 T10221068  RH  071%=      5-min Rain = 0
KFR1 221748Z 34014G20KT M02/M07 A2999 RMK A01 T10231068  RH  071%=      5-min Rain = 0
KFR1 221749Z 36019KT M02/M07 A2999 RMK A01 T10221067  RH  071%=      5-min Rain = 0
KFR1 221750Z 01021G28KT M02/M07 A2999 RMK A01 T10231066  RH  072%=      5-min Rain = 0
KFR1 221751Z 36022G27KT M02/M07 A2999 RMK A01 T10241070  RH  071%=      5-min Rain = 0
KFR1 221752Z 36020G26KT M03/M07 A2999 RMK A01 T10251072  RH  070%=      5-min Rain = 0
KFR1 221753Z 35021G27KT M03/M07 A2999 RMK A01 T10261073  RH  070%=      5-min Rain = 0
KFR1 221754Z 36017G23KT M03/M07 A2999 RMK A01 T10271074  RH  070%=      5-min Rain = 0
KFR1 221755Z 36019KT M03/M07 A2999 RMK A01 T10251070  RH  071%=      5-min Rain = 0
KFR1 221756Z 36019G26KT M02/M07 A2999 RMK A01 T10241069  RH  071%=      5-min Rain = 0
KFR1 221757Z 36020KT M02/M07 A2999 RMK A01 T10241071  RH  070%=      5-min Rain = 0
KFR1 221758Z 00019G24KT M02/M07 A2999 RMK A01 T10241071  RH  070%=      5-min Rain = 0
KFR1 221759Z 00020KT M02/M07 A2999 RMK A01 T10241074  RH  069%=      5-min Rain = 0
KFR1 221800Z 36019G25KT M02/M08 A2999 RMK A01 T10241075  RH  068%=      5-min Rain = 0
KFR1 221801Z 35018G24KT M02/M08 A30 RMK A01 T10241075  RH  068%=      5-min Rain = 0
KFR1 221802Z 35019G26KT M02/M08 A30 RMK A01 T10241076  RH  068%=      5-min Rain = 0
KFR1 221803Z 35020G26KT M02/M08 A2999 RMK A01 T10241077  RH  067%=      5-min Rain = 0
KFR1 221804Z 35021G28KT M03/M08 A30 RMK A01 T10251078  RH  067%=      5-min Rain = 0
KFR1 221805Z 35021G29KT M03/M08 A30 RMK A01 T10251077  RH  067%=      5-min Rain = 0
KFR1 221806Z 36018G23KT M03/M08 A30 RMK A01 T10251077  RH  068%=      5-min Rain = 0
KFR1 221807Z 36022G27KT M02/M08 A2999 RMK A01 T10241077  RH  067%=      5-min Rain = 0
KFR1 221808Z 35019G25KT M02/M08 A30 RMK A01 T10241078  RH  066%=      5-min Rain = 0
KFR1 221809Z 00020KT M02/M08 A2999 RMK A01 T10241078  RH  067%=      5-min Rain = 0
KFR1 221810Z 36021G28KT M02/M08 A30 RMK A01 T10241077  RH  067%=      5-min Rain = 0
KFR1 221811Z 36020KT M02/M08 A30 RMK A01 T10241078  RH  067%=      5-min Rain = 0
KFR1 221812Z 01018KT M02/M08 A2999 RMK A01 T10241076  RH  068%=      5-min Rain = 0
KFR1 221813Z 36021KT M02/M08 A2999 RMK A01 T10241077  RH  067%=      5-min Rain = 0
KFR1 221814Z 01023G29KT M02/M08 A2999 RMK A01 T10241079  RH  066%=      5-min Rain = 0
KFR1 221815Z 00022G29KT M02/M08 A2999 RMK A01 T10241080  RH  066%=      5-min Rain = 0
KFR1 221816Z 01021KT M02/M08 A2999 RMK A01 T10231078  RH  066%=      5-min Rain = 0
KFR1 221817Z 36020G25KT M02/M08 A2999 RMK A01 T10231079  RH  066%=      5-min Rain = 0
KFR1 221818Z 36019G24KT M02/M08 A2999 RMK A01 T10231078  RH  066%=      5-min Rain = 0
KFR1 221819Z 36019G24KT M02/M08 A30 RMK A01 T10221078  RH  066%=      5-min Rain = 0
KFR1 221820Z 35021G27KT M02/M08 A2999 RMK A01 T10221077  RH  066%=      5-min Rain = 0
KFR1 221821Z 36018G25KT M02/M08 A2999 RMK A01 T10221078  RH  065%=      5-min Rain = 0
KFR1 221822Z 36021G27KT M02/M08 A2999 RMK A01 T10221080  RH  065%=      5-min Rain = 0
KFR1 221823Z 35023KT M02/M08 A2999 RMK A01 T10231081  RH  064%=      5-min Rain = 0
KFR1 221824Z 35020G26KT M02/M08 A2999 RMK A01 T10231082  RH  064%=      5-min Rain = 0
KFR1 221825Z 35019KT M02/M08 A2999 RMK A01 T10231081  RH  064%=      5-min Rain = 0
KFR1 221826Z 35019G24KT M02/M08 A2999 RMK A01 T10231083  RH  063%=      5-min Rain = 0
KFR1 221827Z 01020G25KT M02/M08 A2998 RMK A01 T10221081  RH  064%=      5-min Rain = 0
KFR1 221828Z 01021G26KT M02/M08 A2999 RMK A01 T10211077  RH  066%=      5-min Rain = 0
KFR1 221829Z 00021G26KT M02/M08 A2999 RMK A01 T10211077  RH  066%=      5-min Rain = 0
KFR1 221830Z 01021G26KT M02/M08 A2999 RMK A01 T10221079  RH  065%=      5-min Rain = 0
KFR1 221831Z 01022G27KT M02/M08 A2999 RMK A01 T10221080  RH  065%=      5-min Rain = 0
KFR1 221832Z 01020G25KT M02/M08 A2999 RMK A01 T10221080  RH  065%=      5-min Rain = 0
KFR1 221833Z 01021G26KT M02/M08 A2999 RMK A01 T10221080  RH  065%=      5-min Rain = 0
KFR1 221834Z 00022G28KT M02/M08 A2999 RMK A01 T10221079  RH  065%=      5-min Rain = 0
KFR1 221835Z 36023G28KT M02/M08 A2999 RMK A01 T10221080  RH  065%=      5-min Rain = 0
KFR1 221836Z 36020KT M02/M08 A2999 RMK A01 T10221080  RH  064%=      5-min Rain = 0
KFR1 221837Z 35017G24KT M02/M08 A30 RMK A01 T10221079  RH  065%=      5-min Rain = 0
KFR1 221838Z 35016KT M02/M08 A30 RMK A01 T10211080  RH  064%=      5-min Rain = 0
KFR1 221839Z 35020KT M02/M08 A30 RMK A01 T10201081  RH  063%=      5-min Rain = 0
KFR1 221840Z 35022KT M02/M08 A30 RMK A01 T10211082  RH  063%=      5-min Rain = 0
KFR1 221841Z 35022KT M02/M09 A30 RMK A01 T10221085  RH  062%=      5-min Rain = 0
KFR1 221842Z 35018G25KT M02/M08 A30 RMK A01 T10221084  RH  062%=      5-min Rain = 0
KFR1 221843Z 35019G24KT M02/M09 A30 RMK A01 T10221086  RH  062%=      5-min Rain = 0
KFR1 221844Z 35023G28KT M02/M09 A2999 RMK A01 T10221089  RH  060%=      5-min Rain = 0
KFR1 221845Z 35020G26KT M02/M09 A2999 RMK A01 T10221090  RH  060%=      5-min Rain = 0
KFR1 221846Z 35019G25KT M02/M09 A2999 RMK A01 T10231091  RH  060%=      5-min Rain = 0
KFR1 221847Z 34018G23KT M02/M09 A2999 RMK A01 T10221092  RH  059%=      5-min Rain = 0
KFR1 221848Z 35019G26KT M02/M09 A2999 RMK A01 T10231091  RH  059%=      5-min Rain = 0
KFR1 221849Z 36020G26KT M02/M09 A2999 RMK A01 T10221089  RH  060%=      5-min Rain = 0
KFR1 221850Z 36023G28KT M02/M09 A2999 RMK A01 T10231091  RH  060%=      5-min Rain = 0
KFR1 221851Z 35023KT M02/M09 A2999 RMK A01 T10241090  RH  060%=      5-min Rain = 0
KFR1 221852Z 36023KT M02/M09 A2999 RMK A01 T10231087  RH  061%=      5-min Rain = 0
KFR1 221853Z 35024KT M02/M09 A2999 RMK A01 T10221087  RH  061%=      5-min Rain = 0
KFR1 221854Z 36023G29KT M02/M09 A2999 RMK A01 T10231089  RH  060%=      5-min Rain = 0
KFR1 221855Z 00021G27KT M02/M09 A2999 RMK A01 T10231089  RH  061%=      5-min Rain = 0
KFR1 221856Z 00022G29KT M02/M09 A2999 RMK A01 T10231088  RH  061%=      5-min Rain = 0
KFR1 221857Z 35023G28KT M02/M09 A2999 RMK A01 T10231089  RH  061%=      5-min Rain = 0
KFR1 221858Z 35024KT M02/M09 A2999 RMK A01 T10231092  RH  059%=      5-min Rain = 0
KFR1 221859Z 36019KT M02/M09 A2999 RMK A01 T10231093  RH  059%=      5-min Rain = 0
KFR1 221900Z 00020KT M02/M09 A2999 RMK A01 T10231088  RH  061%=      5-min Rain = 0
KFR1 221901Z 00021G26KT M02/M09 A2999 RMK A01 T10211085  RH  062%=      5-min Rain = 0
KFR1 221902Z 36021G27KT M02/M09 A2999 RMK A01 T10201089  RH  059%=      5-min Rain = 0
KFR1 221903Z 00019KT M02/M09 A2999 RMK A01 T10211092  RH  058%=      5-min Rain = 0
KFR1 221904Z 36020KT M02/M09 A30 RMK A01 T10211093  RH  058%=      5-min Rain = 0
KFR1 221905Z 36021G27KT M02/M09 A30 RMK A01 T10211092  RH  058%=      5-min Rain = 0
KFR1 221906Z 36019G25KT M02/M09 A30 RMK A01 T10211093  RH  058%=      5-min Rain = 0
KFR1 221907Z 36023G29KT M02/M09 A30 RMK A01 T10201092  RH  058%=      5-min Rain = 0
KFR1 221908Z 35020KT M02/M09 A30 RMK A01 T10201093  RH  058%=      5-min Rain = 0
KFR1 221909Z 35018G25KT M02/M09 A30 RMK A01 T10211094  RH  057%=      5-min Rain = 0
KFR1 221910Z 35018G24KT M02/M09 A30 RMK A01 T10211093  RH  058%=      5-min Rain = 0
KFR1 221911Z 35022G28KT M02/M09 A30 RMK A01 T10201092  RH  058%=      5-min Rain = 0
KFR1 221912Z 00019KT M02/M09 A2999 RMK A01 T10201089  RH  059%=      5-min Rain = 0
KFR1 221913Z 00023G28KT M02/M09 A2999 RMK A01 T10181088  RH  059%=      5-min Rain = 0
KFR1 221914Z 36023G28KT M02/M09 A30 RMK A01 T10191093  RH  057%=      5-min Rain = 0
KFR1 221915Z 00019G25KT M02/M10 A30 RMK A01 T10201096  RH  056%=      5-min Rain = 0
KFR1 221916Z 01018G25KT M02/M10 A30 RMK A01 T10201095  RH  057%=      5-min Rain = 0
KFR1 221917Z 01019G25KT M02/M09 A30 RMK A01 T10191093  RH  057%=      5-min Rain = 0
KFR1 221918Z 00018G25KT M02/M09 A2999 RMK A01 T10191090  RH  058%=      5-min Rain = 0
KFR1 221919Z 00024G29KT M02/M09 A2999 RMK A01 T10191091  RH  058%=      5-min Rain = 0
KFR1 221920Z 01020G26KT M02/M09 A2999 RMK A01 T10191092  RH  058%=      5-min Rain = 0
KFR1 221921Z 01019G24KT M02/M09 A2999 RMK A01 T10181089  RH  058%=      5-min Rain = 0
KFR1 221922Z 01018G25KT M02/M09 A30 RMK A01 T10171091  RH  057%=      5-min Rain = 0
KFR1 221923Z 01020G25KT M02/M09 A2999 RMK A01 T10181093  RH  056%=      5-min Rain = 0
KFR1 221924Z 00022G27KT M02/M09 A30 RMK A01 T10181092  RH  057%=      5-min Rain = 0
KFR1 221925Z 00024G31KT M02/M09 A30 RMK A01 T10171090  RH  058%=      5-min Rain = 0
KFR1 221926Z 35025G31KT M02/M09 A30 RMK A01 T10171093  RH  056%=      5-min Rain = 0
KFR1 221927Z 35022KT M02/M09 A30 RMK A01 T10181094  RH  056%=      5-min Rain = 0
KFR1 221928Z 36020G30KT M02/M09 A30 RMK A01 T10181093  RH  056%=      5-min Rain = 0
KFR1 221929Z 00022G28KT M02/M09 A30 RMK A01 T10181093  RH  057%=      5-min Rain = 0
KFR1 221930Z 00027G33KT M02/M09 A30 RMK A01 T10181091  RH  057%=      5-min Rain = 0
KFR1 221931Z 36022G29KT M02/M09 A30 RMK A01 T10181093  RH  057%=      5-min Rain = 0
KFR1 221932Z 00025G31KT M02/M09 A30 RMK A01 T10181092  RH  057%=      5-min Rain = 0
KFR1 221933Z 01024G31KT M02/M09 A30 RMK A01 T10181093  RH  056%=      5-min Rain = 0
KFR1 221934Z 01022G27KT M02/M09 A30 RMK A01 T10181094  RH  056%=      5-min Rain = 0
KFR1 221935Z 00022KT M02/M10 A30 RMK A01 T10181095  RH  056%=      5-min Rain = 0
KFR1 221936Z 35020G26KT M02/M10 A30 RMK A01 T10181097  RH  054%=      5-min Rain = 0
KFR1 221937Z 00019G24KT M02/M09 A30 RMK A01 T10161094  RH  055%=      5-min Rain = 0
KFR1 221938Z 01019KT M02/M09 A30 RMK A01 T10151093  RH  055%=      5-min Rain = 0
KFR1 221939Z 00020KT M01/M09 A30 RMK A01 T10141092  RH  055%=      5-min Rain = 0
KFR1 221940Z 36020G26KT M01/M09 A30 RMK A01 T10131093  RH  055%=      5-min Rain = 0
KFR1 221941Z 35024G29KT M01/M10 A30 RMK A01 T10141097  RH  053%=      5-min Rain = 0
KFR1 221942Z 36023G30KT M01/M10 A30 RMK A01 T10131099  RH  052%=      5-min Rain = 0
KFR1 221943Z 36021G27KT M01/M10 A30 RMK A01 T10131100  RH  052%=      5-min Rain = 0
KFR1 221944Z 36018G24KT M01/M10 A30 RMK A01 T10121099  RH  052%=      5-min Rain = 0
KFR1 221945Z 01019KT M01/M10 A30 RMK A01 T10111096  RH  052%=      5-min Rain = 0
KFR1 221946Z 01016G22KT M01/M09 A30 RMK A01 T10111094  RH  053%=      5-min Rain = 0
KFR1 221947Z 01020G26KT M01/M09 A30 RMK A01 T10111094  RH  053%=      5-min Rain = 0
KFR1 221948Z 01020G25KT M01/M10 A30 RMK A01 T10111096  RH  053%=      5-min Rain = 0
KFR1 221949Z 02015G23KT M01/M10 A30 RMK A01 T10131097  RH  053%=      5-min Rain = 0
KFR1 221950Z 01018G23KT M01/M10 A30 RMK A01 T10121097  RH  053%=      5-min Rain = 0
KFR1 221951Z 01019G25KT M01/M10 A30 RMK A01 T10121099  RH  052%=      5-min Rain = 0
KFR1 221952Z 01018G24KT M01/M10 A30 RMK A01 T10131099  RH  052%=      5-min Rain = 0
KFR1 221953Z 00017G23KT M01/M09 A30 RMK A01 T10121093  RH  054%=      5-min Rain = 0
KFR1 221954Z 00016G25KT M01/M09 A2999 RMK A01 T10101091  RH  054%=      5-min Rain = 0
KFR1 221955Z 01022G27KT M01/M10 A2999 RMK A01 T10111096  RH  053%=      5-min Rain = 0
KFR1 221956Z 01020KT M01/M10 A2999 RMK A01 T10131098  RH  052%=      5-min Rain = 0
KFR1 221957Z 01018G24KT M01/M10 A30 RMK A01 T10141099  RH  052%=      5-min Rain = 0
KFR1 221958Z 00020G25KT M01/M10 A30 RMK A01 T10141097  RH  053%=      5-min Rain = 0
KFR1 221959Z 00016KT M01/M10 A30 RMK A01 T10141097  RH  053%=      5-min Rain = 0
KFR1 222000Z 00019G27KT M01/M09 A2999 RMK A01 T10131094  RH  054%=      5-min Rain = 0
KFR1 222001Z 01019G24KT M01/M09 A2999 RMK A01 T10111092  RH  054%=      5-min Rain = 0
KFR1 222002Z 00018KT M01/M09 A2999 RMK A01 T10091094  RH  053%=      5-min Rain = 0
KFR1 222003Z 01020G27KT M01/M09 A2999 RMK A01 T10071093  RH  052%=      5-min Rain = 0
KFR1 222004Z 00021G27KT M01/M10 A2999 RMK A01 T10071096  RH  051%=      5-min Rain = 0
KFR1 222005Z 36017KT M01/M10 A30 RMK A01 T10081096  RH  051%=      5-min Rain = 0
KFR1 222006Z 01018G23KT M01/M10 A30 RMK A01 T10101098  RH  051%=      5-min Rain = 0
KFR1 222007Z 01016G25KT M01/M10 A30 RMK A01 T10121100  RH  051%=      5-min Rain = 0
KFR1 222008Z 01019KT M01/M10 A30 RMK A01 T10131098  RH  053%=      5-min Rain = 0
KFR1 222009Z 01018KT M01/M09 A30 RMK A01 T10121094  RH  054%=      5-min Rain = 0
KFR1 222010Z 01019G24KT M01/M09 A30 RMK A01 T10121093  RH  054%=      5-min Rain = 0
KFR1 222011Z 00022G27KT M01/M09 A30 RMK A01 T10111094  RH  053%=      5-min Rain = 0
KFR1 222012Z 36021G27KT M01/M09 A30 RMK A01 T10101092  RH  054%=      5-min Rain = 0
KFR1 222013Z 35020KT M01/M10 A30 RMK A01 T10091095  RH  052%=      5-min Rain = 0
KFR1 222014Z 00018G25KT M01/M09 A30 RMK A01 T10081094  RH  052%=      5-min Rain = 0
KFR1 222015Z 00021G26KT M01/M10 A30 RMK A01 T10081095  RH  052%=      5-min Rain = 0
KFR1 222016Z 36022KT M01/M09 A30 RMK A01 T10091094  RH  052%=      5-min Rain = 0
KFR1 222017Z 00022G28KT M01/M10 A30 RMK A01 T10091096  RH  052%=      5-min Rain = 0
KFR1 222018Z 01021G27KT M01/M10 A30 RMK A01 T10081096  RH  052%=      5-min Rain = 0
KFR1 222019Z 01019G24KT M01/M10 A30 RMK A01 T10091099  RH  050%=      5-min Rain = 0
KFR1 222020Z 01024G35KT M01/M10 A2999 RMK A01 T10081100  RH  050%=      5-min Rain = 0
KFR1 222021Z 36023G29KT M01/M10 A30 RMK A01 T10081099  RH  050%=      5-min Rain = 0
KFR1 222022Z 35022KT M01/M10 A30 RMK A01 T10081100  RH  050%=      5-min Rain = 0
KFR1 222023Z 35021G30KT M01/M10 A30 RMK A01 T10081100  RH  050%=      5-min Rain = 0
KFR1 222024Z 35020G27KT M01/M10 A30 RMK A01 T10081101  RH  049%=      5-min Rain = 0
KFR1 222025Z 35020G28KT M01/M10 A30 RMK A01 T10081103  RH  049%=      5-min Rain = 0
KFR1 222026Z 00021KT M01/M10 A30 RMK A01 T10081098  RH  050%=      5-min Rain = 0
KFR1 222027Z 00019G26KT M01/M09 A30 RMK A01 T10061092  RH  052%=      5-min Rain = 0
KFR1 222028Z 00019G24KT M01/M09 A30 RMK A01 T10061094  RH  051%=      5-min Rain = 0
KFR1 222029Z 01019KT M01/M10 A30 RMK A01 T10071097  RH  051%=      5-min Rain = 0
KFR1 222030Z 00021G27KT M01/M10 A30 RMK A01 T10071099  RH  050%=      5-min Rain = 0
KFR1 222031Z 00022G27KT M01/M10 A30 RMK A01 T10051097  RH  050%=      5-min Rain = 0
KFR1 222032Z 36022G29KT M00/M10 A30 RMK A01 T10041096  RH  050%=      5-min Rain = 0
KFR1 222033Z 01018G24KT M01/M10 A30 RMK A01 T10051097  RH  050%=      5-min Rain = 0
KFR1 222034Z 01021G28KT M00/M10 A30 RMK A01 T10041096  RH  050%=      5-min Rain = 0
KFR1 222035Z 01022G27KT M01/M10 A30 RMK A01 T10051099  RH  049%=      5-min Rain = 0
KFR1 222036Z 00020KT M01/M10 A30 RMK A01 T10061101  RH  048%=      5-min Rain = 0
KFR1 222037Z 36019G24KT M01/M10 A3001 RMK A01 T10061101  RH  049%=      5-min Rain = 0
KFR1 222038Z 35018G23KT M01/M10 A3001 RMK A01 T10051100  RH  049%=      5-min Rain = 0
KFR1 222039Z 00021KT M00/M10 A3001 RMK A01 T10031098  RH  049%=      5-min Rain = 0
KFR1 222040Z 00019G25KT 00/10 A3001 RMK A01 T00-00-96  RH  049%=      5-min Rain = 0
KFR1 222041Z 35022G30KT 00/10 A3001 RMK A01 T00000-96  RH  048%=      5-min Rain = 0
KFR1 222042Z 36023G29KT 00/M10 A3001 RMK A01 T00011097  RH  048%=      5-min Rain = 0
KFR1 222043Z 00022G30KT 00/10 A3001 RMK A01 T00000-95  RH  049%=      5-min Rain = 0
KFR1 222044Z 00026G35KT 00/10 A3001 RMK A01 T00-00-97  RH  048%=      5-min Rain = 0
KFR1 222045Z 36023KT M00/M10 A3001 RMK A01 T10041103  RH  047%=      5-min Rain = 0
KFR1 222046Z 00020KT M00/M10 A3001 RMK A01 T10041099  RH  049%=      5-min Rain = 0
KFR1 222047Z 35022G27KT M00/M10 A30 RMK A01 T10041097  RH  049%=      5-min Rain = 0
KFR1 222048Z 35018G24KT M00/M10 A30 RMK A01 T10021101  RH  047%=      5-min Rain = 0
KFR1 222049Z 00019G24KT 00/M10 A30 RMK A01 T00011097  RH  048%=      5-min Rain = 0
KFR1 222050Z 01022G27KT 00/M10 A30 RMK A01 T00031095  RH  048%=      5-min Rain = 0
KFR1 222051Z 01020G25KT 00/M10 A30 RMK A01 T00021097  RH  047%=      5-min Rain = 0
KFR1 222052Z 01019G24KT 00/M10 A30 RMK A01 T00011099  RH  047%=      5-min Rain = 0
KFR1 222053Z 02018G26KT 00/10 A30 RMK A01 T00000-96  RH  048%=      5-min Rain = 0
KFR1 222054Z 02021G27KT 00/10 A30 RMK A01 T00-00-98  RH  048%=      5-min Rain = 0
KFR1 222055Z 03017KT M00/M10 A30 RMK A01 T10021101  RH  047%=      5-min Rain = 0
KFR1 222056Z 01021G27KT M00/M10 A30 RMK A01 T10031102  RH  047%=      5-min Rain = 0
KFR1 222057Z 02018G26KT M00/M10 A30 RMK A01 T10031099  RH  048%=      5-min Rain = 0
KFR1 222058Z 01019KT 00/10 A30 RMK A01 T00-00-95  RH  049%=      5-min Rain = 0
KFR1 222059Z 01022G27KT 00/09 A30 RMK A01 T00000-94  RH  049%=      5-min Rain = 0
KFR1 222100Z 36023G29KT M00/M10 A30 RMK A01 T10011096  RH  049%=      5-min Rain = 0
KFR1 222101Z 36023G30KT M00/M10 A30 RMK A01 T10021097  RH  049%=      5-min Rain = 0
KFR1 222102Z 01024G29KT M00/M10 A30 RMK A01 T10011099  RH  048%=      5-min Rain = 0
KFR1 222103Z 35024G29KT M00/M10 A30 RMK A01 T10011102  RH  047%=      5-min Rain = 0
KFR1 222104Z 00024G29KT M00/M10 A30 RMK A01 T10011104  RH  046%=      5-min Rain = 0
KFR1 222105Z 00022G27KT 00/10 A30 RMK A01 T00000-101  RH  046%=      5-min Rain = 0
KFR1 222106Z 01021G29KT 00/M10 A30 RMK A01 T00031096  RH  047%=      5-min Rain = 0
KFR1 222107Z 01025KT 00/M10 A30 RMK A01 T00041098  RH  047%=      5-min Rain = 0
KFR1 222108Z 00021G26KT 00/M10 A30 RMK A01 T00041100  RH  046%=      5-min Rain = 0
KFR1 222109Z 01028G33KT 00/M10 A30 RMK A01 T00041097  RH  047%=      5-min Rain = 0
KFR1 222110Z 01028G34KT 00/10 A30 RMK A01 T00000-102  RH  046%=      5-min Rain = 0
KFR1 222111Z 01029G35KT M00/M10 A30 RMK A01 T10021100  RH  048%=      5-min Rain = 0
KFR1 222112Z 00029G36KT M00/M10 A30 RMK A01 T10041098  RH  049%=      5-min Rain = 0
KFR1 222113Z 00025G33KT M01/M10 A30 RMK A01 T10051098  RH  050%=      5-min Rain = 0
KFR1 222114Z 00027G32KT M01/M10 A3001 RMK A01 T10061096  RH  051%=      5-min Rain = 0
KFR1 222115Z 35024G31KT M00/M10 A3001 RMK A01 T10041097  RH  049%=      5-min Rain = 0
KFR1 222116Z 00027G33KT M00/M10 A3001 RMK A01 T10021095  RH  050%=      5-min Rain = 0
KFR1 222117Z 35028G34KT M00/M10 A3001 RMK A01 T10011096  RH  049%=      5-min Rain = 0
KFR1 222118Z 00026G33KT M00/M10 A3001 RMK A01 T10021099  RH  048%=      5-min Rain = 0
KFR1 222119Z 36024KT M00/M10 A3001 RMK A01 T10031096  RH  049%=      5-min Rain = 0
KFR1 222120Z 00023G35KT M00/M09 A3001 RMK A01 T10021092  RH  051%=      5-min Rain = 0
KFR1 222121Z 00020G28KT 00/09 A3002 RMK A01 T00-00-88  RH  052%=      5-min Rain = 0
KFR1 222122Z 00028G40KT 00/M09 A3001 RMK A01 T00011087  RH  052%=      5-min Rain = 0
KFR1 222123Z 00028G35KT M00/M09 A3001 RMK A01 T10021094  RH  050%=      5-min Rain = 0
KFR1 222124Z 35027G34KT M01/M10 A3002 RMK A01 T10051095  RH  051%=      5-min Rain = 0
KFR1 222125Z 35024G29KT M01/M10 A3002 RMK A01 T10061095  RH  051%=      5-min Rain = 0
KFR1 222126Z 36025G30KT M01/M09 A3002 RMK A01 T10061094  RH  051%=      5-min Rain = 0
KFR1 222127Z 00021G26KT M01/M09 A3002 RMK A01 T10061092  RH  052%=      5-min Rain = 0
KFR1 222128Z 00020G27KT M01/M09 A3002 RMK A01 T10061086  RH  055%=      5-min Rain = 0
KFR1 222129Z 00024KT M01/M09 A3002 RMK A01 T10051089  RH  053%=      5-min Rain = 0
KFR1 222130Z 01024KT M01/M09 A3002 RMK A01 T10071094  RH  052%=      5-min Rain = 0
KFR1 222131Z 01021G27KT M01/M09 A3002 RMK A01 T10071092  RH  052%=      5-min Rain = 0
KFR1 222132Z 01024G29KT M01/M09 A3002 RMK A01 T10071092  RH  053%=      5-min Rain = 0
KFR1 222133Z 01025G33KT M01/M09 A3002 RMK A01 T10081091  RH  053%=      5-min Rain = 0
KFR1 222134Z 01027G32KT M01/M09 A3002 RMK A01 T10091091  RH  054%=      5-min Rain = 0
KFR1 222135Z 01025G31KT M01/M09 A3002 RMK A01 T10101091  RH  054%=      5-min Rain = 0
KFR1 222136Z 00027G33KT M01/M09 A3002 RMK A01 T10101091  RH  054%=      5-min Rain = 0
KFR1 222137Z 00023G29KT M01/M09 A3002 RMK A01 T10101092  RH  054%=      5-min Rain = 0
KFR1 222138Z 36025G31KT M01/M09 A3002 RMK A01 T10101092  RH  054%=      5-min Rain = 0
KFR1 222139Z 01025G31KT M01/M09 A3002 RMK A01 T10101092  RH  053%=      5-min Rain = 0
KFR1 222140Z 00025G33KT M01/M09 A3003 RMK A01 T10091093  RH  053%=      5-min Rain = 0
KFR1 222141Z 00029G36KT M01/M09 A3003 RMK A01 T10101094  RH  053%=      5-min Rain = 0
KFR1 222142Z 01021G28KT M01/M10 A3003 RMK A01 T10101096  RH  052%=      5-min Rain = 0
KFR1 222143Z 00023G32KT M01/M10 A3003 RMK A01 T10101096  RH  052%=      5-min Rain = 0
KFR1 222144Z 01024KT M01/M09 A3003 RMK A01 T10091093  RH  053%=      5-min Rain = 0
KFR1 222145Z 01022G29KT M01/M09 A3003 RMK A01 T10101092  RH  054%=      5-min Rain = 0
KFR1 222146Z 01018G25KT M01/M09 A3003 RMK A01 T10091089  RH  055%=      5-min Rain = 0
KFR1 222147Z 01019G25KT M01/M09 A3003 RMK A01 T10081086  RH  056%=      5-min Rain = 0
KFR1 222148Z 00020G26KT M01/M09 A3003 RMK A01 T10091088  RH  055%=      5-min Rain = 0
KFR1 222149Z 01020G30KT M01/M09 A3003 RMK A01 T10091088  RH  055%=      5-min Rain = 0
KFR1 222150Z 01020G26KT M01/M09 A3003 RMK A01 T10081087  RH  055%=      5-min Rain = 0
KFR1 222151Z 00021KT M01/M09 A3003 RMK A01 T10071087  RH  055%=      5-min Rain = 0
KFR1 222152Z 02023G28KT M01/M09 A3003 RMK A01 T10061088  RH  054%=      5-min Rain = 0
KFR1 222153Z 00023G28KT M01/M09 A3003 RMK A01 T10071090  RH  053%=      5-min Rain = 0
KFR1 222154Z 00022KT M01/M09 A3003 RMK A01 T10071090  RH  054%=      5-min Rain = 0
KFR1 222155Z 01020G26KT M01/M09 A3003 RMK A01 T10071090  RH  054%=      5-min Rain = 0
KFR1 222156Z 01024G31KT M01/M09 A3003 RMK A01 T10071091  RH  053%=      5-min Rain = 0
KFR1 222157Z 01025G31KT M01/M09 A3003 RMK A01 T10081093  RH  053%=      5-min Rain = 0
KFR1 222158Z 02025G30KT M01/M09 A3003 RMK A01 T10081092  RH  053%=      5-min Rain = 0
KFR1 222159Z 00020KT M01/M09 A3004 RMK A01 T10081092  RH  053%=      5-min Rain = 0
KFR1 222200Z 00025G30KT M01/M09 A3004 RMK A01 T10081092  RH  053%=      5-min Rain = 0
KFR1 222201Z 00023G28KT M01/M09 A3004 RMK A01 T10071093  RH  052%=      5-min Rain = 0
KFR1 222202Z 00024KT M01/M09 A3004 RMK A01 T10061092  RH  052%=      5-min Rain = 0
KFR1 222203Z 36024G31KT M01/M09 A3004 RMK A01 T10061093  RH  052%=      5-min Rain = 0
KFR1 222204Z 01022G30KT M01/M09 A3004 RMK A01 T10051094  RH  051%=      5-min Rain = 0
KFR1 222205Z 01026G34KT M01/M09 A3004 RMK A01 T10051094  RH  051%=      5-min Rain = 0
KFR1 222206Z 00026G32KT M01/M09 A3004 RMK A01 T10051093  RH  051%=      5-min Rain = 0
KFR1 222207Z 01019G26KT M01/M09 A3004 RMK A01 T10051094  RH  051%=      5-min Rain = 0
KFR1 222208Z 00021G26KT M01/M09 A3004 RMK A01 T10051090  RH  053%=      5-min Rain = 0
KFR1 222209Z 01021G28KT M01/M09 A3004 RMK A01 T10051092  RH  052%=      5-min Rain = 0
KFR1 222210Z 00022KT M01/M09 A3004 RMK A01 T10051093  RH  051%=      5-min Rain = 0
KFR1 222211Z 01022G29KT M01/M09 A3005 RMK A01 T10051092  RH  052%=      5-min Rain = 0
KFR1 222212Z 36021G26KT M01/M09 A3005 RMK A01 T10051091  RH  052%=      5-min Rain = 0
KFR1 222213Z 00019G24KT M01/M09 A3005 RMK A01 T10051092  RH  052%=      5-min Rain = 0
KFR1 222214Z 01018KT M00/M09 A3005 RMK A01 T10041092  RH  051%=      5-min Rain = 0
KFR1 222215Z 36021G27KT M00/M09 A3005 RMK A01 T10041089  RH  052%=      5-min Rain = 0
KFR1 222216Z 00020G25KT M00/M09 A3005 RMK A01 T10031086  RH  054%=      5-min Rain = 0
KFR1 222217Z 00022G31KT M00/M09 A3005 RMK A01 T10031086  RH  054%=      5-min Rain = 0
KFR1 222218Z 01020G26KT M01/M09 A3005 RMK A01 T10051091  RH  052%=      5-min Rain = 0
KFR1 222219Z 01022G30KT M01/M09 A3005 RMK A01 T10061092  RH  052%=      5-min Rain = 0
KFR1 222220Z 01018G27KT M01/M09 A3006 RMK A01 T10061092  RH  052%=      5-min Rain = 0
KFR1 222221Z 01023G30KT M01/M09 A3005 RMK A01 T10071092  RH  052%=      5-min Rain = 0
KFR1 222222Z 01022G27KT M01/M09 A3005 RMK A01 T10071091  RH  053%=      5-min Rain = 0
KFR1 222223Z 01023G30KT M01/M09 A3006 RMK A01 T10071090  RH  053%=      5-min Rain = 0
KFR1 222224Z 00026KT M01/M09 A3006 RMK A01 T10081091  RH  053%=      5-min Rain = 0
KFR1 222225Z 00021G28KT M01/M09 A3006 RMK A01 T10091093  RH  053%=      5-min Rain = 0
KFR1 222226Z 36020G26KT M01/M09 A3006 RMK A01 T10091092  RH  054%=      5-min Rain = 0
KFR1 222227Z 00023G28KT M01/M09 A3006 RMK A01 T10091090  RH  054%=      5-min Rain = 0
KFR1 222228Z 01019G26KT M01/M09 A3006 RMK A01 T10091091  RH  054%=      5-min Rain = 0
KFR1 222229Z 02021G27KT M01/M09 A3006 RMK A01 T10091092  RH  054%=      5-min Rain = 0
KFR1 222230Z 01021G28KT M01/M09 A3006 RMK A01 T10101093  RH  054%=      5-min Rain = 0
KFR1 222231Z 01018KT M01/M09 A3006 RMK A01 T10111092  RH  054%=      5-min Rain = 0
KFR1 222232Z 01020G25KT M01/M09 A3006 RMK A01 T10121091  RH  055%=      5-min Rain = 0
KFR1 222233Z 01022G29KT M01/M09 A3007 RMK A01 T10121090  RH  056%=      5-min Rain = 0
KFR1 222234Z 00023G28KT M01/M09 A3007 RMK A01 T10121091  RH  055%=      5-min Rain = 0
KFR1 222235Z 01020G26KT M01/M09 A3007 RMK A01 T10131091  RH  055%=      5-min Rain = 0
KFR1 222236Z 01017G27KT M01/M09 A3007 RMK A01 T10131091  RH  055%=      5-min Rain = 0
KFR1 222237Z 01023KT M01/M09 A3007 RMK A01 T10121093  RH  054%=      5-min Rain = 0
KFR1 222238Z 01018KT M01/M09 A3007 RMK A01 T10131094  RH  054%=      5-min Rain = 0
KFR1 222239Z 01017G24KT M01/M09 A3007 RMK A01 T10121090  RH  056%=      5-min Rain = 0
KFR1 222240Z 02016G24KT M01/M09 A3007 RMK A01 T10111089  RH  055%=      5-min Rain = 0
KFR1 222241Z 01017KT M01/M09 A3007 RMK A01 T10101090  RH  055%=      5-min Rain = 0
KFR1 222242Z 01017G27KT M01/M09 A3007 RMK A01 T10101090  RH  055%=      5-min Rain = 0
KFR1 222243Z 02020G25KT M01/M09 A3007 RMK A01 T10111091  RH  054%=      5-min Rain = 0
KFR1 222244Z 01021G26KT M01/M09 A3007 RMK A01 T10111093  RH  054%=      5-min Rain = 0
KFR1 222245Z 02018G24KT M01/M09 A3007 RMK A01 T10121093  RH  054%=      5-min Rain = 0
KFR1 222246Z 01020KT M01/M09 A3007 RMK A01 T10121093  RH  054%=      5-min Rain = 0
KFR1 222247Z 01017G23KT M01/M09 A3007 RMK A01 T10121093  RH  054%=      5-min Rain = 0
KFR1 222248Z 01020KT M01/M09 A3007 RMK A01 T10121092  RH  055%=      5-min Rain = 0
KFR1 222249Z 02018KT M01/M09 A3007 RMK A01 T10121092  RH  055%=      5-min Rain = 0
KFR1 222250Z 02017G23KT M01/M09 A3007 RMK A01 T10121092  RH  055%=      5-min Rain = 0
KFR1 222251Z 01017G23KT M01/M09 A3007 RMK A01 T10131092  RH  055%=      5-min Rain = 0
KFR1 222252Z 02016G22KT M01/M09 A3007 RMK A01 T10131090  RH  056%=      5-min Rain = 0
KFR1 222253Z 01018KT M01/M09 A3007 RMK A01 T10131089  RH  056%=      5-min Rain = 0
KFR1 222254Z 01020G25KT M01/M09 A3007 RMK A01 T10121088  RH  056%=      5-min Rain = 0
KFR1 222255Z 01017G22KT M01/M09 A3007 RMK A01 T10131090  RH  056%=      5-min Rain = 0
KFR1 222256Z 01018G26KT M01/M09 A3007 RMK A01 T10131090  RH  056%=      5-min Rain = 0
KFR1 222257Z 01018KT M01/M09 A3007 RMK A01 T10131089  RH  056%=      5-min Rain = 0
KFR1 222258Z 01015G23KT M01/M09 A3008 RMK A01 T10131090  RH  056%=      5-min Rain = 0
KFR1 222259Z 01019G24KT M01/M09 A3008 RMK A01 T10131088  RH  057%=      5-min Rain = 0
KFR1 222300Z 01019G26KT M01/M09 A3007 RMK A01 T10131088  RH  057%=      5-min Rain = 0
KFR1 222301Z 02020G27KT M01/M09 A3007 RMK A01 T10131088  RH  057%=      5-min Rain = 0
KFR1 222302Z 01017G22KT M01/M09 A3008 RMK A01 T10141089  RH  057%=      5-min Rain = 0
KFR1 222303Z 01015G20KT M01/M09 A3008 RMK A01 T10141087  RH  058%=      5-min Rain = 0
KFR1 222304Z 02016KT M01/M09 A3008 RMK A01 T10141087  RH  058%=      5-min Rain = 0
KFR1 222305Z 01018KT M02/M09 A3008 RMK A01 T10151087  RH  058%=      5-min Rain = 0
KFR1 222306Z 01018G24KT M02/M09 A3008 RMK A01 T10151087  RH  058%=      5-min Rain = 0
KFR1 222307Z 01019KT M02/M09 A3008 RMK A01 T10151087  RH  058%=      5-min Rain = 0
KFR1 222308Z 01019KT M02/M09 A3008 RMK A01 T10161088  RH  058%=      5-min Rain = 0
KFR1 222309Z 00020KT M02/M09 A3008 RMK A01 T10161087  RH  058%=      5-min Rain = 0
KFR1 222310Z 01016KT M02/M09 A3008 RMK A01 T10161088  RH  058%=      5-min Rain = 0
KFR1 222311Z 01015G21KT M02/M09 A3008 RMK A01 T10161086  RH  059%=      5-min Rain = 0
KFR1 222312Z 01015G21KT M02/M09 A3008 RMK A01 T10161086  RH  059%=      5-min Rain = 0
KFR1 222313Z 01013G18KT M02/M09 A3008 RMK A01 T10161086  RH  059%=      5-min Rain = 0
KFR1 222314Z 01015KT M02/M09 A3009 RMK A01 T10161085  RH  060%=      5-min Rain = 0
KFR1 222315Z 02012KT M02/M09 A3008 RMK A01 T10171085  RH  060%=      5-min Rain = 0
KFR1 222316Z 01017KT M02/M09 A3008 RMK A01 T10171085  RH  060%=      5-min Rain = 0
KFR1 222317Z 01014KT M02/M09 A3008 RMK A01 T10171085  RH  060%=      5-min Rain = 0
KFR1 222318Z 02017KT M02/M09 A3009 RMK A01 T10171085  RH  060%=      5-min Rain = 0
KFR1 222319Z 01013G19KT M02/M09 A3009 RMK A01 T10181085  RH  060%=      5-min Rain = 0
KFR1 222320Z 02014KT M02/M09 A3009 RMK A01 T10171085  RH  060%=      5-min Rain = 0
KFR1 222321Z 03015KT M02/M09 A3009 RMK A01 T10181085  RH  060%=      5-min Rain = 0
KFR1 222322Z 01011KT M02/M09 A3009 RMK A01 T10181085  RH  060%=      5-min Rain = 0
KFR1 222323Z 02010KT M02/M09 A3009 RMK A01 T10191085  RH  060%=      5-min Rain = 0
KFR1 222324Z 02011G17KT M02/M09 A3009 RMK A01 T10191086  RH  060%=      5-min Rain = 0
KFR1 222325Z 02009KT M02/M09 A3009 RMK A01 T10191086  RH  060%=      5-min Rain = 0
KFR1 222326Z 02012G18KT M02/M09 A3009 RMK A01 T10191085  RH  061%=      5-min Rain = 0
KFR1 222327Z 01015KT M02/M09 A3009 RMK A01 T10191086  RH  060%=      5-min Rain = 0
KFR1 222328Z 01017KT M02/M09 A3009 RMK A01 T10201087  RH  060%=      5-min Rain = 0
KFR1 222329Z 02013G18KT M02/M09 A3009 RMK A01 T10201086  RH  060%=      5-min Rain = 0
KFR1 222330Z 02014KT M02/M09 A3009 RMK A01 T10201086  RH  061%=      5-min Rain = 0
KFR1 222331Z 01012KT M02/M09 A3009 RMK A01 T10201086  RH  061%=      5-min Rain = 0
KFR1 222332Z 01016KT M02/M09 A3009 RMK A01 T10211086  RH  061%=      5-min Rain = 0
KFR1 222333Z 01015KT M02/M09 A3009 RMK A01 T10211086  RH  061%=      5-min Rain = 0
KFR1 222334Z 01012KT M02/M09 A3009 RMK A01 T10211085  RH  062%=      5-min Rain = 0
KFR1 222335Z 00013KT M02/M08 A3009 RMK A01 T10201082  RH  062%=      5-min Rain = 0
KFR1 222336Z 01012KT M02/M08 A3009 RMK A01 T10191082  RH  063%=      5-min Rain = 0
KFR1 222337Z 01011KT M02/M08 A3009 RMK A01 T10191081  RH  063%=      5-min Rain = 0
KFR1 222338Z 02013KT M02/M08 A3009 RMK A01 T10181081  RH  062%=      5-min Rain = 0
KFR1 222339Z 01011KT M02/M08 A3009 RMK A01 T10181083  RH  062%=      5-min Rain = 0
KFR1 222340Z 02012KT M02/M08 A3009 RMK A01 T10181082  RH  062%=      5-min Rain = 0
KFR1 222341Z 01014KT M02/M08 A3009 RMK A01 T10181083  RH  061%=      5-min Rain = 0
KFR1 222342Z 01013KT M02/M09 A3009 RMK A01 T10191085  RH  061%=      5-min Rain = 0
KFR1 222343Z 01013KT M02/M09 A301 RMK A01 T10191085  RH  061%=      5-min Rain = 0
KFR1 222344Z 02014KT M02/M09 A301 RMK A01 T10191085  RH  061%=      5-min Rain = 0
KFR1 222345Z 01014KT M02/M09 A301 RMK A01 T10191085  RH  061%=      5-min Rain = 0
KFR1 222346Z 01012KT M02/M09 A301 RMK A01 T10191085  RH  061%=      5-min Rain = 0
KFR1 222347Z 01012KT M02/M09 A301 RMK A01 T10191085  RH  061%=      5-min Rain = 0
KFR1 222348Z 01014KT M02/M08 A301 RMK A01 T10191084  RH  061%=      5-min Rain = 0
KFR1 222349Z 01014KT M02/M08 A301 RMK A01 T10191083  RH  062%=      5-min Rain = 0
KFR1 222350Z 00013KT M02/M08 A301 RMK A01 T10191082  RH  062%=      5-min Rain = 0
KFR1 222351Z 00012KT M02/M08 A301 RMK A01 T10191081  RH  062%=      5-min Rain = 0
KFR1 222352Z 02013KT M02/M08 A301 RMK A01 T10191081  RH  063%=      5-min Rain = 0
KFR1 222353Z 01012KT M02/M08 A301 RMK A01 T10181081  RH  062%=      5-min Rain = 0
KFR1 222354Z 01013KT M02/M08 A301 RMK A01 T10191081  RH  062%=      5-min Rain = 0
KFR1 222355Z 01013KT M02/M08 A301 RMK A01 T10191080  RH  063%=      5-min Rain = 0
KFR1 222356Z 01013KT M02/M08 A301 RMK A01 T10181079  RH  063%=      5-min Rain = 0
KFR1 222357Z 01013G20KT M02/M08 A301 RMK A01 T10181079  RH  063%=      5-min Rain = 0
KFR1 222358Z 01015KT M02/M08 A301 RMK A01 T10181080  RH  063%=      5-min Rain = 0
KFR1 222359Z 01013KT M02/M08 A301 RMK A01 T10181080  RH  063%=      5-min Rain = 0
KFR1 230000Z 02010KT M02/M08 A301 RMK A01 T10191080  RH  063%=      5-min Rain = 0
KFR1 230001Z 02011G18KT M02/M08 A301 RMK A01 T10191080  RH  063%=      5-min Rain = 0
KFR1 230002Z 00016KT M02/M08 A301 RMK A01 T10201081  RH  063%=      5-min Rain = 0
KFR1 230003Z 01014KT M02/M08 A301 RMK A01 T10201082  RH  063%=      5-min Rain = 0
KFR1 230004Z 02011KT M02/M08 A301 RMK A01 T10201080  RH  064%=      5-min Rain = 0
KFR1 230005Z 01014G19KT M02/M08 A301 RMK A01 T10211081  RH  064%=      5-min Rain = 0
KFR1 230006Z 02014KT M02/M08 A301 RMK A01 T10211082  RH  063%=      5-min Rain = 0
KFR1 230007Z 02013KT M02/M08 A301 RMK A01 T10211082  RH  063%=      5-min Rain = 0
KFR1 230008Z 01012G17KT M02/M08 A301 RMK A01 T10221082  RH  063%=      5-min Rain = 0
KFR1 230009Z 02011KT M02/M08 A301 RMK A01 T10231082  RH  064%=      5-min Rain = 0
KFR1 230010Z 01011G16KT M02/M08 A3011 RMK A01 T10231081  RH  064%=      5-min Rain = 0
KFR1 230011Z 01010KT M02/M08 A3011 RMK A01 T10221080  RH  065%=      5-min Rain = 0
KFR1 230012Z 01012G17KT M02/M08 A3011 RMK A01 T10231079  RH  065%=      5-min Rain = 0
KFR1 230013Z 01013G19KT M02/M08 A3011 RMK A01 T10231080  RH  065%=      5-min Rain = 0
KFR1 230014Z 01015KT M02/M08 A3011 RMK A01 T10221079  RH  065%=      5-min Rain = 0
KFR1 230015Z 01014G19KT M02/M08 A3011 RMK A01 T10221078  RH  066%=      5-min Rain = 0
KFR1 230016Z 01013G18KT M02/M08 A3011 RMK A01 T10221076  RH  066%=      5-min Rain = 0
KFR1 230017Z 01014G22KT M02/M07 A3011 RMK A01 T10211074  RH  067%=      5-min Rain = 0
KFR1 230018Z 01015G20KT M02/M07 A3011 RMK A01 T10211074  RH  067%=      5-min Rain = 0
KFR1 230019Z 01014KT M02/M08 A3011 RMK A01 T10211075  RH  066%=      5-min Rain = 0
KFR1 230020Z 01012G17KT M02/M07 A3011 RMK A01 T10211074  RH  067%=      5-min Rain = 0
KFR1 230021Z 36014KT M02/M07 A3011 RMK A01 T10211073  RH  068%=      5-min Rain = 0
KFR1 230022Z 00014G19KT M02/M07 A3011 RMK A01 T10201072  RH  068%=      5-min Rain = 0
KFR1 230023Z 01016KT M02/M07 A3011 RMK A01 T10211071  RH  068%=      5-min Rain = 0
KFR1 230024Z 36017KT M02/M07 A3011 RMK A01 T10201070  RH  068%=      5-min Rain = 0
KFR1 230025Z 00016KT M02/M07 A3011 RMK A01 T10191069  RH  069%=      5-min Rain = 0
KFR1 230026Z 00015KT M02/M07 A3011 RMK A01 T10191069  RH  068%=      5-min Rain = 0
KFR1 230027Z 36015KT M02/M07 A3011 RMK A01 T10191070  RH  068%=      5-min Rain = 0
KFR1 230028Z 00014KT M02/M07 A3011 RMK A01 T10191069  RH  069%=      5-min Rain = 0
KFR1 230029Z 01013KT M02/M07 A3011 RMK A01 T10181068  RH  069%=      5-min Rain = 0
KFR1 230030Z 00013KT M02/M07 A3011 RMK A01 T10191068  RH  069%=      5-min Rain = 0
KFR1 230031Z 00013KT M02/M07 A3011 RMK A01 T10191068  RH  069%=      5-min Rain = 0
KFR1 230032Z 01015KT M02/M07 A3011 RMK A01 T10191069  RH  068%=      5-min Rain = 0
KFR1 230033Z 01011KT M02/M07 A3011 RMK A01 T10201071  RH  068%=      5-min Rain = 0
KFR1 230034Z 01012KT M02/M07 A3011 RMK A01 T10201073  RH  067%=      5-min Rain = 0
KFR1 230035Z 00011KT M02/M07 A3011 RMK A01 T10221073  RH  068%=      5-min Rain = 0
KFR1 230036Z 01010KT M02/M07 A3011 RMK A01 T10221071  RH  069%=      5-min Rain = 0
KFR1 230037Z 00012KT M02/M07 A3011 RMK A01 T10221070  RH  070%=      5-min Rain = 0
KFR1 230038Z 00011KT M02/M07 A3012 RMK A01 T10221069  RH  070%=      5-min Rain = 0
KFR1 230039Z 00011G16KT M02/M07 A3012 RMK A01 T10221069  RH  070%=      5-min Rain = 0
KFR1 230040Z 00013KT M02/M07 A3012 RMK A01 T10221070  RH  070%=      5-min Rain = 0
KFR1 230041Z 00012KT M02/M07 A3012 RMK A01 T10221070  RH  070%=      5-min Rain = 0
KFR1 230042Z 36013KT M02/M07 A3012 RMK A01 T10221070  RH  070%=      5-min Rain = 0
KFR1 230043Z 00012KT M02/M07 A3012 RMK A01 T10231071  RH  069%=      5-min Rain = 0
KFR1 230044Z 35012KT M02/M07 A3012 RMK A01 T10231070  RH  070%=      5-min Rain = 0
KFR1 230045Z 01011KT M02/M07 A3012 RMK A01 T10231069  RH  071%=      5-min Rain = 0
KFR1 230046Z 01012KT M02/M07 A3012 RMK A01 T10231068  RH  071%=      5-min Rain = 0
KFR1 230047Z 36016KT M02/M07 A3012 RMK A01 T10231068  RH  071%=      5-min Rain = 0
KFR1 230048Z 00012G17KT M02/M07 A3012 RMK A01 T10231070  RH  070%=      5-min Rain = 0
KFR1 230049Z 00012KT M02/M07 A3012 RMK A01 T10231070  RH  070%=      5-min Rain = 0
KFR1 230050Z 00013KT M02/M07 A3012 RMK A01 T10231070  RH  070%=      5-min Rain = 0
KFR1 230051Z 00012KT M02/M07 A3012 RMK A01 T10241070  RH  070%=      5-min Rain = 0
KFR1 230052Z 01011KT M02/M07 A3012 RMK A01 T10241070  RH  070%=      5-min Rain = 0
KFR1 230053Z 01010KT M02/M07 A3012 RMK A01 T10241069  RH  071%=      5-min Rain = 0
KFR1 230054Z 01012KT M02/M07 A3012 RMK A01 T10241070  RH  071%=      5-min Rain = 0
KFR1 230055Z 36012KT M02/M07 A3012 RMK A01 T10241070  RH  071%=      5-min Rain = 0
KFR1 230056Z 00010KT M02/M07 A3012 RMK A01 T10241069  RH  071%=      5-min Rain = 0
KFR1 230057Z 00010KT M02/M07 A3012 RMK A01 T10241069  RH  071%=      5-min Rain = 0
KFR1 230058Z 01011KT M02/M07 A3012 RMK A01 T10241070  RH  071%=      5-min Rain = 0
KFR1 230059Z 01012KT M03/M07 A3012 RMK A01 T10251070  RH  071%=      5-min Rain = 0
KFR1 230100Z 00010KT M03/M07 A3012 RMK A01 T10251069  RH  071%=      5-min Rain = 0
KFR1 230101Z 00011KT M03/M07 A3012 RMK A01 T10251069  RH  072%=      5-min Rain = 0
KFR1 230102Z 36010KT M03/M07 A3012 RMK A01 T10251068  RH  072%=      5-min Rain = 0
KFR1 230103Z 35012KT M03/M07 A3012 RMK A01 T10251068  RH  072%=      5-min Rain = 0
KFR1 230104Z 36009KT M03/M07 A3012 RMK A01 T10251068  RH  072%=      5-min Rain = 0
KFR1 230105Z 00009KT M03/M07 A3013 RMK A01 T10251068  RH  072%=      5-min Rain = 0
KFR1 230106Z 36010KT M03/M07 A3013 RMK A01 T10251069  RH  072%=      5-min Rain = 0
KFR1 230107Z 00010KT M03/M07 A3013 RMK A01 T10251069  RH  072%=      5-min Rain = 0
KFR1 230108Z 35008KT M03/M07 A3013 RMK A01 T10261069  RH  072%=      5-min Rain = 0
KFR1 230109Z 00008KT M03/M07 A3013 RMK A01 T10261069  RH  072%=      5-min Rain = 0
KFR1 230110Z 01007KT M03/M07 A3013 RMK A01 T10261069  RH  072%=      5-min Rain = 0
KFR1 230111Z 01007KT M03/M07 A3013 RMK A01 T10271070  RH  072%=      5-min Rain = 0
KFR1 230112Z 01007KT M03/M07 A3013 RMK A01 T10271070  RH  072%=      5-min Rain = 0
KFR1 230113Z 01008KT M03/M07 A3013 RMK A01 T10281071  RH  072%=      5-min Rain = 0
KFR1 230114Z 00009KT M03/M07 A3013 RMK A01 T10281071  RH  072%=      5-min Rain = 0
KFR1 230115Z 00008KT M03/M07 A3013 RMK A01 T10271071  RH  072%=      5-min Rain = 0
KFR1 230116Z 00011KT M03/M07 A3013 RMK A01 T10271071  RH  072%=      5-min Rain = 0
KFR1 230117Z 01008KT M03/M07 A3013 RMK A01 T10271071  RH  072%=      5-min Rain = 0
KFR1 230118Z 00008KT M03/M07 A3013 RMK A01 T10271071  RH  072%=      5-min Rain = 0
KFR1 230119Z 01009KT M03/M07 A3013 RMK A01 T10281071  RH  072%=      5-min Rain = 0
KFR1 230120Z 01009KT M03/M07 A3013 RMK A01 T10271071  RH  072%=      5-min Rain = 0
KFR1 230121Z 01009KT M03/M07 A3013 RMK A01 T10281071  RH  072%=      5-min Rain = 0
KFR1 230122Z 02008KT M03/M07 A3013 RMK A01 T10281071  RH  072%=      5-min Rain = 0
KFR1 230123Z 01008KT M03/M07 A3013 RMK A01 T10281070  RH  073%=      5-min Rain = 0
KFR1 230124Z 01011KT M03/M07 A3013 RMK A01 T10281070  RH  073%=      5-min Rain = 0
KFR1 230125Z 01011KT M03/M07 A3013 RMK A01 T10281071  RH  073%=      5-min Rain = 0
KFR1 230126Z 02007KT M03/M07 A3014 RMK A01 T10281071  RH  072%=      5-min Rain = 0
KFR1 230127Z 01009KT M03/M07 A3014 RMK A01 T10281071  RH  072%=      5-min Rain = 0
KFR1 230128Z 02008KT M03/M07 A3014 RMK A01 T10281070  RH  073%=      5-min Rain = 0
KFR1 230129Z 01009KT M03/M07 A3014 RMK A01 T10281070  RH  073%=      5-min Rain = 0
KFR1 230130Z 01009KT M03/M07 A3014 RMK A01 T10281071  RH  073%=      5-min Rain = 0
KFR1 230131Z 01008KT M03/M07 A3014 RMK A01 T10281071  RH  073%=      5-min Rain = 0
KFR1 230132Z 01009KT M03/M07 A3014 RMK A01 T10281071  RH  073%=      5-min Rain = 0
KFR1 230133Z 01009KT M03/M07 A3014 RMK A01 T10281070  RH  073%=      5-min Rain = 0
KFR1 230134Z 00007KT M03/M07 A3014 RMK A01 T10281070  RH  073%=      5-min Rain = 0
KFR1 230135Z 01008KT M03/M07 A3014 RMK A01 T10281070  RH  073%=      5-min Rain = 0
KFR1 230136Z 01009KT M03/M07 A3014 RMK A01 T10281069  RH  073%=      5-min Rain = 0
KFR1 230137Z 01008KT M03/M07 A3015 RMK A01 T10281070  RH  073%=      5-min Rain = 0
KFR1 230138Z 00010KT M03/M07 A3015 RMK A01 T10281069  RH  073%=      5-min Rain = 0
KFR1 230139Z 01008KT M03/M07 A3015 RMK A01 T10281069  RH  073%=      5-min Rain = 0
KFR1 230140Z 01008KT M03/M07 A3015 RMK A01 T10281069  RH  073%=      5-min Rain = 0
KFR1 230141Z 01008KT M03/M07 A3015 RMK A01 T10281068  RH  074%=      5-min Rain = 0
KFR1 230142Z 01007KT M03/M07 A3015 RMK A01 T10281068  RH  074%=      5-min Rain = 0
KFR1 230143Z 01007KT M03/M07 A3015 RMK A01 T10281068  RH  074%=      5-min Rain = 0
KFR1 230144Z 01008KT M03/M07 A3015 RMK A01 T10281068  RH  074%=      5-min Rain = 0
KFR1 230145Z 01007KT M03/M07 A3015 RMK A01 T10281068  RH  074%=      5-min Rain = 0
KFR1 230146Z 00008KT M03/M07 A3015 RMK A01 T10281067  RH  075%=      5-min Rain = 0
KFR1 230147Z 36008KT M03/M07 A3015 RMK A01 T10281066  RH  075%=      5-min Rain = 0
KFR1 230148Z 36008KT M03/M07 A3015 RMK A01 T10281066  RH  075%=      5-min Rain = 0
KFR1 230149Z 36009KT M03/M07 A3015 RMK A01 T10281067  RH  075%=      5-min Rain = 0
KFR1 230150Z 00009KT M03/M07 A3015 RMK A01 T10281067  RH  075%=      5-min Rain = 0
KFR1 230151Z 36009KT M03/M07 A3015 RMK A01 T10281067  RH  075%=      5-min Rain = 0
KFR1 230152Z 00008KT M03/M07 A3015 RMK A01 T10291067  RH  075%=      5-min Rain = 0
KFR1 230153Z 00007KT M03/M07 A3015 RMK A01 T10281066  RH  075%=      5-min Rain = 0
KFR1 230154Z 36008KT M03/M07 A3015 RMK A01 T10281066  RH  075%=      5-min Rain = 0
KFR1 230155Z 00007KT M03/M07 A3015 RMK A01 T10291068  RH  075%=      5-min Rain = 0
KFR1 230201Z 36009KT M03/M07 A3015 RMK A01 T10301067  RH  076%=      5-min Rain = 0
KFR1 230202Z 35009KT M03/M07 A3015 RMK A01 T10301067  RH  076%=      5-min Rain = 0
KFR1 230203Z 35008KT M03/M07 A3015 RMK A01 T10301067  RH  076%=      5-min Rain = 0
KFR1 230204Z 35008KT M03/M07 A3015 RMK A01 T10301067  RH  076%=      5-min Rain = 0
KFR1 230205Z 36010KT M03/M07 A3015 RMK A01 T10301067  RH  076%=      5-min Rain = 0
KFR1 230206Z 35009KT M03/M07 A3015 RMK A01 T10311067  RH  076%=      5-min Rain = 0
KFR1 230207Z 35008KT M03/M07 A3015 RMK A01 T10311068  RH  076%=      5-min Rain = 0
KFR1 230208Z 35008KT M03/M07 A3015 RMK A01 T10311068  RH  076%=      5-min Rain = 0
KFR1 230209Z 34008KT M03/M07 A3015 RMK A01 T10311067  RH  076%=      5-min Rain = 0
KFR1 230210Z 36009KT M03/M07 A3015 RMK A01 T10311068  RH  076%=      5-min Rain = 0
KFR1 230211Z 35009KT M03/M07 A3016 RMK A01 T10321068  RH  076%=      5-min Rain = 0
KFR1 230212Z 36008KT M03/M07 A3016 RMK A01 T10321068  RH  076%=      5-min Rain = 0
KFR1 230213Z 35010KT M03/M07 A3016 RMK A01 T10331069  RH  076%=      5-min Rain = 0
KFR1 230214Z 36010KT M03/M07 A3016 RMK A01 T10331069  RH  076%=      5-min Rain = 0
KFR1 230215Z 35010KT M03/M07 A3016 RMK A01 T10331069  RH  076%=      5-min Rain = 0
KFR1 230216Z 35011KT M03/M07 A3016 RMK A01 T10331069  RH  076%=      5-min Rain = 0
KFR1 230217Z 35010KT M03/M07 A3016 RMK A01 T10331068  RH  076%=      5-min Rain = 0
KFR1 230218Z 35009KT M03/M07 A3016 RMK A01 T10331068  RH  077%=      5-min Rain = 0
KFR1 230219Z 36009KT M03/M07 A3016 RMK A01 T10331068  RH  077%=      5-min Rain = 0
KFR1 230220Z 36010KT M03/M07 A3016 RMK A01 T10331067  RH  077%=      5-min Rain = 0
KFR1 230221Z 35008KT M03/M07 A3016 RMK A01 T10331067  RH  077%=      5-min Rain = 0
KFR1 230222Z 35009KT M03/M07 A3016 RMK A01 T10331067  RH  077%=      5-min Rain = 0
KFR1 230223Z 35009KT M03/M07 A3016 RMK A01 T10331067  RH  077%=      5-min Rain = 0
KFR1 230224Z 35011KT M03/M07 A3016 RMK A01 T10331067  RH  078%=      5-min Rain = 0
KFR1 230225Z 36008KT M03/M07 A3016 RMK A01 T10321066  RH  078%=      5-min Rain = 0
KFR1 230226Z 35008KT M03/M07 A3016 RMK A01 T10321066  RH  078%=      5-min Rain = 0
KFR1 230227Z 35009KT M03/M07 A3016 RMK A01 T10321066  RH  078%=      5-min Rain = 0
KFR1 230228Z 36010KT M03/M07 A3016 RMK A01 T10331066  RH  077%=      5-min Rain = 0
KFR1 230229Z 35009KT M03/M07 A3016 RMK A01 T10321066  RH  077%=      5-min Rain = 0
KFR1 230230Z 35010KT M03/M07 A3016 RMK A01 T10321066  RH  078%=      5-min Rain = 0
KFR1 230231Z 36011KT M03/M07 A3016 RMK A01 T10321065  RH  078%=      5-min Rain = 0
KFR1 230232Z 35009KT M03/M07 A3016 RMK A01 T10311065  RH  077%=      5-min Rain = 0
KFR1 230233Z 01011KT M03/M07 A3016 RMK A01 T10311065  RH  077%=      5-min Rain = 0
KFR1 230234Z 00012KT M03/M07 A3016 RMK A01 T10311065  RH  078%=      5-min Rain = 0
KFR1 230235Z 01009KT M03/M07 A3016 RMK A01 T10301065  RH  077%=      5-min Rain = 0
KFR1 230236Z 00009KT M03/M06 A3016 RMK A01 T10301063  RH  078%=      5-min Rain = 0
KFR1 230237Z 00009KT M03/M06 A3016 RMK A01 T10301062  RH  079%=      5-min Rain = 0
KFR1 230238Z 00011KT M03/M06 A3016 RMK A01 T10311063  RH  079%=      5-min Rain = 0
KFR1 230239Z 00011KT M03/M06 A3016 RMK A01 T10311063  RH  078%=      5-min Rain = 0
KFR1 230240Z 00012KT M03/M06 A3016 RMK A01 T10311064  RH  078%=      5-min Rain = 0
KFR1 230241Z 01009KT M03/M06 A3016 RMK A01 T10311064  RH  078%=      5-min Rain = 0
KFR1 230242Z 01008KT M03/M06 A3016 RMK A01 T10311062  RH  079%=      5-min Rain = 0
KFR1 230243Z 01008KT M03/M06 A3016 RMK A01 T10321063  RH  079%=      5-min Rain = 0
KFR1 230244Z 02010KT M03/M06 A3016 RMK A01 T10321064  RH  079%=      5-min Rain = 0
KFR1 230245Z 01008KT M03/M07 A3016 RMK A01 T10321065  RH  078%=      5-min Rain = 0
KFR1 230246Z 01011KT M03/M07 A3016 RMK A01 T10321066  RH  078%=      5-min Rain = 0
KFR1 230247Z 02011KT M03/M07 A3016 RMK A01 T10321066  RH  078%=      5-min Rain = 0
KFR1 230248Z 01010KT M03/M07 A3016 RMK A01 T10321066  RH  078%=      5-min Rain = 0
KFR1 230249Z 01012KT M03/M07 A3016 RMK A01 T10331066  RH  078%=      5-min Rain = 0
KFR1 230250Z 02011KT M03/M07 A3016 RMK A01 T10331067  RH  077%=      5-min Rain = 0
KFR1 230251Z 02012KT M03/M07 A3016 RMK A01 T10331067  RH  077%=      5-min Rain = 0
KFR1 230252Z 01011G16KT M03/M07 A3016 RMK A01 T10331067  RH  077%=      5-min Rain = 0
KFR1 230253Z 01013KT M03/M07 A3016 RMK A01 T10331067  RH  077%=      5-min Rain = 0
KFR1 230254Z 01013KT M03/M07 A3016 RMK A01 T10331066  RH  078%=      5-min Rain = 0
KFR1 230255Z 01011KT M03/M07 A3016 RMK A01 T10331067  RH  078%=      5-min Rain = 0
KFR1 230256Z 02010KT M03/M07 A3016 RMK A01 T10331067  RH  078%=      5-min Rain = 0
KFR1 230257Z 02009G14KT M03/M07 A3016 RMK A01 T10331067  RH  078%=      5-min Rain = 0
KFR1 230258Z 01010KT M03/M07 A3017 RMK A01 T10341067  RH  078%=      5-min Rain = 0
KFR1 230259Z 01014KT M03/M07 A3016 RMK A01 T10341066  RH  078%=      5-min Rain = 0
KFR1 230300Z 01011KT M03/M07 A3017 RMK A01 T10341065  RH  079%=      5-min Rain = 0
KFR1 230301Z 02014KT M03/M07 A3016 RMK A01 T10331065  RH  079%=      5-min Rain = 0
KFR1 230302Z 02011KT M03/M07 A3017 RMK A01 T10331066  RH  078%=      5-min Rain = 0
KFR1 230303Z 01013KT M03/M07 A3017 RMK A01 T10331065  RH  078%=      5-min Rain = 0
KFR1 230304Z 01013KT M03/M07 A3016 RMK A01 T10331066  RH  078%=      5-min Rain = 0
KFR1 230305Z 02011KT M03/M06 A3016 RMK A01 T10331064  RH  079%=      5-min Rain = 0
KFR1 230306Z 01014G19KT M03/M06 A3016 RMK A01 T10331064  RH  079%=      5-min Rain = 0
KFR1 230307Z 02011KT M03/M07 A3016 RMK A01 T10331065  RH  079%=      5-min Rain = 0
KFR1 230308Z 01009KT M03/M06 A3016 RMK A01 T10331064  RH  079%=      5-min Rain = 0
KFR1 230309Z 01011KT M03/M06 A3016 RMK A01 T10341064  RH  080%=      5-min Rain = 0
KFR1 230310Z 02013KT M03/M06 A3016 RMK A01 T10341064  RH  080%=      5-min Rain = 0
KFR1 230311Z 01009KT M03/M06 A3017 RMK A01 T10341063  RH  080%=      5-min Rain = 0
KFR1 230312Z 02009KT M04/M06 A3017 RMK A01 T10351063  RH  081%=      5-min Rain = 0
KFR1 230313Z 01009KT M04/M06 A3017 RMK A01 T10351064  RH  081%=      5-min Rain = 0
KFR1 230314Z 01011KT M04/M06 A3017 RMK A01 T10361064  RH  081%=      5-min Rain = 0
KFR1 230315Z 02011KT M04/M06 A3017 RMK A01 T10361063  RH  081%=      5-min Rain = 0
KFR1 230316Z 01011KT M04/M06 A3017 RMK A01 T10361063  RH  081%=      5-min Rain = 0
KFR1 230317Z 02008G13KT M04/M06 A3017 RMK A01 T10351064  RH  081%=      5-min Rain = 0
KFR1 230318Z 02010KT M04/M06 A3017 RMK A01 T10361064  RH  081%=      5-min Rain = 0
KFR1 230319Z 01010KT M04/M07 A3017 RMK A01 T10361065  RH  081%=      5-min Rain = 0
KFR1 230320Z 01011KT M04/M07 A3017 RMK A01 T10361065  RH  080%=      5-min Rain = 0
KFR1 230321Z 01009KT M04/M06 A3017 RMK A01 T10361064  RH  081%=      5-min Rain = 0
KFR1 230322Z 01010KT M04/M06 A3017 RMK A01 T10361064  RH  081%=      5-min Rain = 0
KFR1 230323Z 01009KT M04/M06 A3017 RMK A01 T10361064  RH  081%=      5-min Rain = 0
KFR1 230324Z 02011KT M04/M06 A3017 RMK A01 T10361063  RH  081%=      5-min Rain = 0
KFR1 230325Z 01011KT M04/M06 A3017 RMK A01 T10361064  RH  081%=      5-min Rain = 0
KFR1 230326Z 02010KT M04/M06 A3017 RMK A01 T10361064  RH  081%=      5-min Rain = 0
KFR1 230327Z 01009KT M04/M06 A3017 RMK A01 T10361063  RH  082%=      5-min Rain = 0
KFR1 230328Z 01009KT M04/M06 A3017 RMK A01 T10371064  RH  082%=      5-min Rain = 0
KFR1 230329Z 01009KT M04/M06 A3017 RMK A01 T10371064  RH  082%=      5-min Rain = 0
KFR1 230330Z 00008KT M04/M07 A3017 RMK A01 T10381065  RH  082%=      5-min Rain = 0
KFR1 230331Z 01006KT M04/M06 A3017 RMK A01 T10381064  RH  082%=      5-min Rain = 0
KFR1 230332Z 01007KT M04/M06 A3017 RMK A01 T10381064  RH  082%=      5-min Rain = 0
KFR1 230333Z 00009KT M04/M06 A3017 RMK A01 T10391064  RH  082%=      5-min Rain = 0
KFR1 230334Z 00010KT M04/M06 A3017 RMK A01 T10391064  RH  083%=      5-min Rain = 0
KFR1 230335Z 00010KT M04/M06 A3017 RMK A01 T10391064  RH  083%=      5-min Rain = 0
KFR1 230336Z 00009KT M04/M06 A3017 RMK A01 T10391064  RH  082%=      5-min Rain = 0
KFR1 230337Z 01008KT M04/M06 A3017 RMK A01 T10391064  RH  082%=      5-min Rain = 0
KFR1 230338Z 00009KT M04/M06 A3017 RMK A01 T10391064  RH  083%=      5-min Rain = 0
KFR1 230339Z 01008KT M04/M06 A3017 RMK A01 T10391063  RH  083%=      5-min Rain = 0
KFR1 230340Z 36008KT M04/M06 A3017 RMK A01 T10391063  RH  084%=      5-min Rain = 0
KFR1 230341Z 35010KT M04/M06 A3017 RMK A01 T10391062  RH  084%=      5-min Rain = 0
KFR1 230342Z 36011KT M04/M06 A3017 RMK A01 T10391063  RH  083%=      5-min Rain = 0
KFR1 230343Z 00010KT M04/M06 A3017 RMK A01 T10391064  RH  082%=      5-min Rain = 0
KFR1 230344Z 36008KT M04/M07 A3017 RMK A01 T10391065  RH  082%=      5-min Rain = 0
KFR1 230345Z 36009KT M04/M07 A3017 RMK A01 T10391065  RH  082%=      5-min Rain = 0
KFR1 230346Z 36009KT M04/M07 A3017 RMK A01 T10391065  RH  082%=      5-min Rain = 0
KFR1 230347Z 36008KT M04/M06 A3017 RMK A01 T10391064  RH  083%=      5-min Rain = 0
KFR1 230348Z 00008KT M04/M06 A3017 RMK A01 T10381064  RH  082%=      5-min Rain = 0
KFR1 230349Z 00008KT M04/M06 A3017 RMK A01 T10381064  RH  083%=      5-min Rain = 0
KFR1 230350Z 00006KT M04/M06 A3017 RMK A01 T10381064  RH  083%=      5-min Rain = 0
KFR1 230351Z 35007KT M04/M06 A3017 RMK A01 T10381063  RH  083%=      5-min Rain = 0
KFR1 230352Z 35008KT M04/M06 A3017 RMK A01 T10381064  RH  082%=      5-min Rain = 0
KFR1 230353Z 01009KT M04/M07 A3017 RMK A01 T10391065  RH  082%=      5-min Rain = 0
KFR1 230354Z 01008KT M04/M07 A3017 RMK A01 T10391065  RH  082%=      5-min Rain = 0
KFR1 230355Z 36008KT M04/M07 A3017 RMK A01 T10391065  RH  082%=      5-min Rain = 0
KFR1 230356Z 36007KT M04/M06 A3017 RMK A01 T10381064  RH  082%=      5-min Rain = 0
KFR1 230357Z 36009KT M04/M06 A3017 RMK A01 T10381064  RH  082%=      5-min Rain = 0
KFR1 230358Z 35008KT M04/M06 A3017 RMK A01 T10381064  RH  082%=      5-min Rain = 0
KFR1 230359Z 35007KT M04/M06 A3017 RMK A01 T10381064  RH  082%=      5-min Rain = 0
KFR1 230400Z 35009KT M04/M06 A3017 RMK A01 T10381064  RH  082%=      5-min Rain = 0
KFR1 230401Z 36009KT M04/M07 A3017 RMK A01 T10381065  RH  082%=      5-min Rain = 0
KFR1 230402Z 00009KT M04/M07 A3017 RMK A01 T10381065  RH  082%=      5-min Rain = 0
KFR1 230403Z 36009KT M04/M07 A3017 RMK A01 T10381065  RH  082%=      5-min Rain = 0
KFR1 230404Z 36008KT M04/M07 A3017 RMK A01 T10381065  RH  082%=      5-min Rain = 0
KFR1 230405Z 36008KT M04/M06 A3017 RMK A01 T10391064  RH  082%=      5-min Rain = 0
KFR1 230406Z 35009KT M04/M07 A3017 RMK A01 T10391065  RH  082%=      5-min Rain = 0
KFR1 230407Z 36009KT M04/M07 A3017 RMK A01 T10391065  RH  082%=      5-min Rain = 0
KFR1 230408Z 36009KT M04/M07 A3017 RMK A01 T10401066  RH  082%=      5-min Rain = 0
KFR1 230409Z 35008KT M04/M07 A3017 RMK A01 T10401066  RH  082%=      5-min Rain = 0
KFR1 230410Z 00008KT M04/M07 A3017 RMK A01 T10401066  RH  082%=      5-min Rain = 0
KFR1 230411Z 36009KT M04/M07 A3017 RMK A01 T10401066  RH  082%=      5-min Rain = 0
KFR1 230412Z 35009KT M04/M07 A3017 RMK A01 T10401065  RH  082%=      5-min Rain = 0
KFR1 230413Z 36007KT M04/M07 A3017 RMK A01 T10401065  RH  082%=      5-min Rain = 0
KFR1 230414Z 35006KT M04/M07 A3017 RMK A01 T10401066  RH  082%=      5-min Rain = 0
KFR1 230415Z 00006KT M04/M07 A3017 RMK A01 T10401066  RH  082%=      5-min Rain = 0
KFR1 230416Z 35006KT M04/M07 A3017 RMK A01 T10411066  RH  083%=      5-min Rain = 0
KFR1 230417Z 36009KT M04/M07 A3017 RMK A01 T10411066  RH  083%=      5-min Rain = 0
KFR1 230418Z 00009KT M04/M07 A3017 RMK A01 T10411066  RH  083%=      5-min Rain = 0
KFR1 230419Z 36009KT M04/M07 A3017 RMK A01 T10411065  RH  083%=      5-min Rain = 0
KFR1 230420Z 36009KT M04/M07 A3017 RMK A01 T10401066  RH  082%=      5-min Rain = 0
KFR1 230421Z 36008KT M04/M07 A3017 RMK A01 T10391066  RH  082%=      5-min Rain = 0
KFR1 230422Z 36007KT M04/M07 A3017 RMK A01 T10391065  RH  082%=      5-min Rain = 0
KFR1 230423Z 36007KT M04/M07 A3017 RMK A01 T10391065  RH  082%=      5-min Rain = 0
KFR1 230424Z 35007KT M04/M06 A3017 RMK A01 T10391064  RH  083%=      5-min Rain = 0
KFR1 230425Z 35006KT M04/M07 A3017 RMK A01 T10401065  RH  083%=      5-min Rain = 0
KFR1 230426Z 34005KT M04/M06 A3017 RMK A01 T10401064  RH  083%=      5-min Rain = 0
KFR1 230427Z 34006KT M04/M06 A3017 RMK A01 T10401064  RH  083%=      5-min Rain = 0
KFR1 230428Z 34005KT M04/M07 A3017 RMK A01 T10401065  RH  082%=      5-min Rain = 0
KFR1 230429Z 33008KT M04/M07 A3017 RMK A01 T10401067  RH  082%=      5-min Rain = 0
KFR1 230430Z 34007KT M04/M07 A3017 RMK A01 T10391068  RH  081%=      5-min Rain = 0
KFR1 230431Z 33006KT M04/M07 A3017 RMK A01 T10391069  RH  080%=      5-min Rain = 0
KFR1 230432Z 33008KT M04/M07 A3017 RMK A01 T10391069  RH  079%=      5-min Rain = 0
KFR1 230433Z 32006KT M04/M07 A3017 RMK A01 T10391071  RH  078%=      5-min Rain = 0
KFR1 230434Z 33007KT M04/M07 A3017 RMK A01 T10391072  RH  078%=      5-min Rain = 0
KFR1 230435Z 33008KT M04/M07 A3017 RMK A01 T10391072  RH  078%=      5-min Rain = 0
KFR1 230436Z 33007KT M04/M07 A3017 RMK A01 T10381072  RH  078%=      5-min Rain = 0
KFR1 230437Z 33007KT M04/M07 A3017 RMK A01 T10381071  RH  078%=      5-min Rain = 0
KFR1 230438Z 33008KT M04/M07 A3017 RMK A01 T10381071  RH  078%=      5-min Rain = 0
KFR1 230439Z 34006KT M04/M07 A3017 RMK A01 T10381071  RH  078%=      5-min Rain = 0
KFR1 230440Z 33006KT M04/M07 A3017 RMK A01 T10381072  RH  077%=      5-min Rain = 0
KFR1 230441Z 33008KT M04/M07 A3017 RMK A01 T10381072  RH  077%=      5-min Rain = 0
KFR1 230442Z 32007KT M04/M07 A3017 RMK A01 T10391073  RH  077%=      5-min Rain = 0
KFR1 230443Z 33005KT M04/M07 A3017 RMK A01 T10391074  RH  077%=      5-min Rain = 0
KFR1 230444Z 33005KT M04/M07 A3017 RMK A01 T10401074  RH  077%=      5-min Rain = 0
KFR1 230445Z 33006KT M04/M08 A3017 RMK A01 T10401075  RH  077%=      5-min Rain = 0
KFR1 230446Z 33007KT M04/M08 A3017 RMK A01 T10401075  RH  076%=      5-min Rain = 0
KFR1 230447Z 33006KT M04/M08 A3017 RMK A01 T10401076  RH  076%=      5-min Rain = 0
KFR1 230448Z 34005KT M04/M08 A3017 RMK A01 T10391076  RH  076%=      5-min Rain = 0
KFR1 230449Z 33005KT M04/M08 A3017 RMK A01 T10391076  RH  076%=      5-min Rain = 0
KFR1 230450Z 31005KT M04/M08 A3017 RMK A01 T10401075  RH  076%=      5-min Rain = 0
KFR1 230451Z 33005KT M04/M08 A3017 RMK A01 T10401075  RH  077%=      5-min Rain = 0
KFR1 230452Z 31004KT M04/M08 A3017 RMK A01 T10411076  RH  076%=      5-min Rain = 0
KFR1 230453Z 32005KT M04/M08 A3017 RMK A01 T10421076  RH  077%=      5-min Rain = 0
KFR1 230454Z 33005KT M04/M08 A3017 RMK A01 T10421076  RH  077%=      5-min Rain = 0
KFR1 230455Z 32006KT M04/M08 A3017 RMK A01 T10421077  RH  077%=      5-min Rain = 0
KFR1 230456Z 32007KT M04/M08 A3017 RMK A01 T10421078  RH  076%=      5-min Rain = 0
KFR1 230457Z 32006KT M04/M08 A3017 RMK A01 T10421078  RH  076%=      5-min Rain = 0
KFR1 230458Z 33006KT M04/M08 A3017 RMK A01 T10421078  RH  076%=      5-min Rain = 0
KFR1 230459Z 32006KT M04/M08 A3017 RMK A01 T10411077  RH  076%=      5-min Rain = 0
KFR1 230500Z 33005KT M04/M08 A3017 RMK A01 T10401077  RH  075%=      5-min Rain = 0
KFR1 230501Z 33006KT M04/M08 A3017 RMK A01 T10401077  RH  075%=      5-min Rain = 0
KFR1 230502Z 33006KT M04/M08 A3017 RMK A01 T10411078  RH  075%=      5-min Rain = 0
KFR1 230503Z 33007KT M04/M08 A3017 RMK A01 T10411078  RH  076%=      5-min Rain = 0
KFR1 230504Z 33008KT M04/M08 A3017 RMK A01 T10411078  RH  075%=      5-min Rain = 0
KFR1 230505Z 33007KT M04/M08 A3017 RMK A01 T10401077  RH  075%=      5-min Rain = 0
KFR1 230506Z 32006KT M04/M08 A3017 RMK A01 T10401078  RH  075%=      5-min Rain = 0
KFR1 230507Z 33006KT M04/M08 A3017 RMK A01 T10401078  RH  075%=      5-min Rain = 0
KFR1 230508Z 32005KT M04/M08 A3016 RMK A01 T10411078  RH  075%=      5-min Rain = 0
KFR1 230509Z 32006KT M04/M08 A3016 RMK A01 T10421078  RH  076%=      5-min Rain = 0
KFR1 230510Z 32006KT M04/M08 A3016 RMK A01 T10421077  RH  076%=      5-min Rain = 0
KFR1 230511Z 32005KT M04/M08 A3016 RMK A01 T10431077  RH  077%=      5-min Rain = 0
KFR1 230512Z 32004KT M04/M08 A3016 RMK A01 T10431077  RH  077%=      5-min Rain = 0
KFR1 230513Z 32006KT M04/M08 A3016 RMK A01 T10431077  RH  077%=      5-min Rain = 0
KFR1 230514Z 32005KT M04/M08 A3016 RMK A01 T10431077  RH  078%=      5-min Rain = 0
KFR1 230515Z 31006KT M04/M08 A3016 RMK A01 T10441077  RH  078%=      5-min Rain = 0
KFR1 230516Z 32006KT M04/M08 A3016 RMK A01 T10441077  RH  078%=      5-min Rain = 0
KFR1 230517Z 32006KT M04/M08 A3016 RMK A01 T10441077  RH  078%=      5-min Rain = 0
KFR1 230518Z 31006KT M04/M08 A3016 RMK A01 T10441076  RH  079%=      5-min Rain = 0
KFR1 230519Z 31006KT M04/M08 A3016 RMK A01 T10441075  RH  079%=      5-min Rain = 0
KFR1 230520Z 31007KT M04/M08 A3016 RMK A01 T10431075  RH  079%=      5-min Rain = 0
KFR1 230521Z 31007KT M04/M07 A3016 RMK A01 T10421074  RH  078%=      5-min Rain = 0
KFR1 230522Z 31005KT M04/M08 A3016 RMK A01 T10421076  RH  077%=      5-min Rain = 0
KFR1 230523Z 31007KT M04/M08 A3016 RMK A01 T10421076  RH  077%=      5-min Rain = 0
KFR1 230524Z 30006KT M04/M08 A3016 RMK A01 T10421075  RH  077%=      5-min Rain = 0
KFR1 230525Z 29006KT M04/M08 A3016 RMK A01 T10421075  RH  078%=      5-min Rain = 0
KFR1 230526Z 30005KT M04/M08 A3016 RMK A01 T10421075  RH  078%=      5-min Rain = 0
KFR1 230527Z 29005KT M04/M08 A3016 RMK A01 T10431076  RH  077%=      5-min Rain = 0
KFR1 230528Z 29004KT M04/M08 A3016 RMK A01 T10431076  RH  078%=      5-min Rain = 0
KFR1 230529Z 29005KT M04/M08 A3016 RMK A01 T10441077  RH  078%=      5-min Rain = 0
KFR1 230530Z 29005KT M04/M08 A3016 RMK A01 T10441077  RH  077%=      5-min Rain = 0
KFR1 230531Z 29005KT M04/M08 A3016 RMK A01 T10441077  RH  078%=      5-min Rain = 0
KFR1 230532Z 29004KT M04/M08 A3016 RMK A01 T10441076  RH  078%=      5-min Rain = 0
KFR1 230533Z 30005KT M04/M08 A3016 RMK A01 T10441077  RH  078%=      5-min Rain = 0
KFR1 230534Z 29005KT M04/M08 A3016 RMK A01 T10441078  RH  077%=      5-min Rain = 0
KFR1 230535Z 29005KT M04/M08 A3016 RMK A01 T10441078  RH  077%=      5-min Rain = 0
KFR1 230536Z 29005KT M04/M08 A3016 RMK A01 T10431078  RH  077%=      5-min Rain = 0
KFR1 230537Z 29004KT M04/M08 A3016 RMK A01 T10431078  RH  076%=      5-min Rain = 0
KFR1 230538Z 29006KT M04/M08 A3016 RMK A01 T10431079  RH  076%=      5-min Rain = 0
KFR1 230539Z 29006KT M04/M08 A3016 RMK A01 T10431079  RH  076%=      5-min Rain = 0
KFR1 230540Z 29006KT M04/M08 A3016 RMK A01 T10431079  RH  076%=      5-min Rain = 0
KFR1 230541Z 29005KT M04/M08 A3016 RMK A01 T10431079  RH  076%=      5-min Rain = 0
KFR1 230542Z 28005KT M04/M08 A3016 RMK A01 T10431079  RH  076%=      5-min Rain = 0
KFR1 230543Z 29006KT M04/M08 A3016 RMK A01 T10431079  RH  076%=      5-min Rain = 0
KFR1 230544Z 29005KT M04/M08 A3016 RMK A01 T10441079  RH  076%=      5-min Rain = 0
KFR1 230545Z 29007KT M04/M08 A3016 RMK A01 T10441079  RH  076%=      5-min Rain = 0
KFR1 230546Z 29007KT M04/M08 A3016 RMK A01 T10441080  RH  076%=      5-min Rain = 0
KFR1 230547Z 29008KT M04/M08 A3016 RMK A01 T10431079  RH  076%=      5-min Rain = 0
KFR1 230548Z 30007KT M04/M08 A3016 RMK A01 T10431078  RH  076%=      5-min Rain = 0
KFR1 230549Z 30005KT M04/M08 A3016 RMK A01 T10431079  RH  076%=      5-min Rain = 0
KFR1 230550Z 30006KT M04/M08 A3016 RMK A01 T10431079  RH  076%=      5-min Rain = 0
KFR1 230551Z 30006KT M04/M08 A3016 RMK A01 T10431080  RH  076%=      5-min Rain = 0
KFR1 230552Z 30006KT M04/M08 A3016 RMK A01 T10431081  RH  075%=      5-min Rain = 0
KFR1 230553Z 30005KT M04/M08 A3016 RMK A01 T10431081  RH  075%=      5-min Rain = 0
KFR1 230554Z 30006KT M04/M08 A3016 RMK A01 T10441082  RH  075%=      5-min Rain = 0
KFR1 230555Z 31007KT M04/M08 A3016 RMK A01 T10431082  RH  075%=      5-min Rain = 0
KFR1 230556Z 30005KT M04/M08 A3016 RMK A01 T10431082  RH  074%=      5-min Rain = 0
KFR1 230557Z 31009KT M04/M08 A3016 RMK A01 T10431082  RH  074%=      5-min Rain = 0
KFR1 230558Z 31007KT M04/M08 A3016 RMK A01 T10421082  RH  074%=      5-min Rain = 0
KFR1 230559Z 31007KT M04/M08 A3016 RMK A01 T10421082  RH  073%=      5-min Rain = 0

Page generated in 0.1253 seconds.